<?xml version="1.0" encoding="UTF-8" standalone="no" ?>
<gpx xmlns="http://www.topografix.com/GPX/1/1" xmlns:xsi="http://www.w3.org/2001/XMLSchema-instance" xsi:schemaLocation="http://www.topografix.com/GPX/1/1 http://www.topografix.com/GPX/1/1/gpx.xsd" version="1.1" creator="VisuGPX - https://www.visugpx.com">
  <metadata>
    <name>Vauvert à pied</name>
    <desc><![CDATA[Rando digestive ]]></desc>
  </metadata>
  <trk>
    <name><![CDATA[20190321184946-f8ip1]]></name>
    <trkseg>
      <trkpt lat="43.69243" lon="4.27684">
        <ele>10.06</ele>
        <time>2019-03-16T14:31:33Z</time>
      </trkpt>
      <trkpt lat="43.69241" lon="4.27705">
        <ele>10.64</ele>
        <time>2019-03-16T14:31:49Z</time>
      </trkpt>
      <trkpt lat="43.6924" lon="4.27722">
        <ele>11.81</ele>
        <time>2019-03-16T14:32:06Z</time>
      </trkpt>
      <trkpt lat="43.69237" lon="4.27729">
        <ele>12.22</ele>
        <time>2019-03-16T14:32:12Z</time>
      </trkpt>
      <trkpt lat="43.69231" lon="4.27738">
        <ele>12.89</ele>
        <time>2019-03-16T14:32:24Z</time>
      </trkpt>
      <trkpt lat="43.6923" lon="4.27755">
        <ele>13.57</ele>
        <time>2019-03-16T14:32:40Z</time>
      </trkpt>
      <trkpt lat="43.69229" lon="4.27769">
        <ele>14.6</ele>
        <time>2019-03-16T14:32:58Z</time>
      </trkpt>
      <trkpt lat="43.69222" lon="4.27779">
        <ele>15.29</ele>
        <time>2019-03-16T14:33:09Z</time>
      </trkpt>
      <trkpt lat="43.69216" lon="4.27796">
        <ele>16.04</ele>
        <time>2019-03-16T14:33:22Z</time>
      </trkpt>
      <trkpt lat="43.69217" lon="4.27816">
        <ele>16.89</ele>
        <time>2019-03-16T14:33:33Z</time>
      </trkpt>
      <trkpt lat="43.69224" lon="4.2783">
        <ele>17.94</ele>
        <time>2019-03-16T14:33:42Z</time>
      </trkpt>
      <trkpt lat="43.69219" lon="4.27846">
        <ele>18.88</ele>
        <time>2019-03-16T14:33:52Z</time>
      </trkpt>
      <trkpt lat="43.69217" lon="4.27862">
        <ele>19.37</ele>
        <time>2019-03-16T14:34:02Z</time>
      </trkpt>
      <trkpt lat="43.69219" lon="4.27868">
        <ele>19.76</ele>
        <time>2019-03-16T14:34:06Z</time>
      </trkpt>
      <trkpt lat="43.6922" lon="4.27873">
        <ele>19.9</ele>
        <time>2019-03-16T14:34:10Z</time>
      </trkpt>
      <trkpt lat="43.6922" lon="4.27888">
        <ele>20.57</ele>
        <time>2019-03-16T14:34:27Z</time>
      </trkpt>
      <trkpt lat="43.69218" lon="4.27889">
        <ele>20.61</ele>
        <time>2019-03-16T14:34:30Z</time>
      </trkpt>
      <trkpt lat="43.69213" lon="4.27893">
        <ele>21.1</ele>
        <time>2019-03-16T14:34:48Z</time>
      </trkpt>
      <trkpt lat="43.69212" lon="4.27906">
        <ele>21.44</ele>
        <time>2019-03-16T14:35:06Z</time>
      </trkpt>
      <trkpt lat="43.69212" lon="4.27911">
        <ele>22.03</ele>
        <time>2019-03-16T14:35:28Z</time>
      </trkpt>
      <trkpt lat="43.69207" lon="4.27913">
        <ele>21.66</ele>
        <time>2019-03-16T14:35:44Z</time>
      </trkpt>
      <trkpt lat="43.692" lon="4.27923">
        <ele>22.16</ele>
        <time>2019-03-16T14:36:00Z</time>
      </trkpt>
      <trkpt lat="43.69201" lon="4.27931">
        <ele>22.64</ele>
        <time>2019-03-16T14:36:16Z</time>
      </trkpt>
      <trkpt lat="43.69201" lon="4.27944">
        <ele>22.83</ele>
        <time>2019-03-16T14:36:29Z</time>
      </trkpt>
      <trkpt lat="43.69199" lon="4.27954">
        <ele>23.08</ele>
        <time>2019-03-16T14:36:36Z</time>
      </trkpt>
      <trkpt lat="43.69205" lon="4.27974">
        <ele>24.43</ele>
        <time>2019-03-16T14:36:58Z</time>
      </trkpt>
      <trkpt lat="43.69217" lon="4.27978">
        <ele>24.98</ele>
        <time>2019-03-16T14:37:10Z</time>
      </trkpt>
      <trkpt lat="43.69219" lon="4.27981">
        <ele>25.18</ele>
        <time>2019-03-16T14:37:15Z</time>
      </trkpt>
      <trkpt lat="43.69221" lon="4.27986">
        <ele>25.41</ele>
        <time>2019-03-16T14:37:18Z</time>
      </trkpt>
      <trkpt lat="43.69229" lon="4.28001">
        <ele>26.54</ele>
        <time>2019-03-16T14:37:31Z</time>
      </trkpt>
      <trkpt lat="43.69241" lon="4.28009">
        <ele>27.53</ele>
        <time>2019-03-16T14:37:48Z</time>
      </trkpt>
      <trkpt lat="43.69248" lon="4.28012">
        <ele>28.49</ele>
        <time>2019-03-16T14:38:05Z</time>
      </trkpt>
      <trkpt lat="43.69254" lon="4.28011">
        <ele>28.43</ele>
        <time>2019-03-16T14:38:24Z</time>
      </trkpt>
      <trkpt lat="43.69268" lon="4.2802">
        <ele>28.83</ele>
        <time>2019-03-16T14:38:37Z</time>
      </trkpt>
      <trkpt lat="43.69279" lon="4.28025">
        <ele>28.94</ele>
        <time>2019-03-16T14:38:48Z</time>
      </trkpt>
      <trkpt lat="43.69294" lon="4.28024">
        <ele>30.08</ele>
        <time>2019-03-16T14:39:01Z</time>
      </trkpt>
      <trkpt lat="43.69301" lon="4.28026">
        <ele>30.2</ele>
        <time>2019-03-16T14:39:10Z</time>
      </trkpt>
      <trkpt lat="43.69307" lon="4.28028">
        <ele>29.97</ele>
        <time>2019-03-16T14:39:15Z</time>
      </trkpt>
      <trkpt lat="43.69312" lon="4.28028">
        <ele>29.72</ele>
        <time>2019-03-16T14:39:19Z</time>
      </trkpt>
      <trkpt lat="43.69328" lon="4.28028">
        <ele>29.25</ele>
        <time>2019-03-16T14:39:34Z</time>
      </trkpt>
      <trkpt lat="43.69341" lon="4.28034">
        <ele>28.77</ele>
        <time>2019-03-16T14:39:45Z</time>
      </trkpt>
      <trkpt lat="43.69358" lon="4.28044">
        <ele>28.25</ele>
        <time>2019-03-16T14:39:59Z</time>
      </trkpt>
      <trkpt lat="43.69371" lon="4.28047">
        <ele>27.29</ele>
        <time>2019-03-16T14:40:12Z</time>
      </trkpt>
      <trkpt lat="43.69389" lon="4.28058">
        <ele>26.65</ele>
        <time>2019-03-16T14:40:26Z</time>
      </trkpt>
      <trkpt lat="43.69403" lon="4.28078">
        <ele>26.22</ele>
        <time>2019-03-16T14:40:41Z</time>
      </trkpt>
      <trkpt lat="43.69415" lon="4.28099">
        <ele>25.59</ele>
        <time>2019-03-16T14:40:56Z</time>
      </trkpt>
      <trkpt lat="43.69429" lon="4.28122">
        <ele>24.98</ele>
        <time>2019-03-16T14:41:13Z</time>
      </trkpt>
      <trkpt lat="43.69439" lon="4.28136">
        <ele>24.63</ele>
        <time>2019-03-16T14:41:27Z</time>
      </trkpt>
      <trkpt lat="43.6944" lon="4.28138">
        <ele>24.62</ele>
        <time>2019-03-16T14:41:29Z</time>
      </trkpt>
      <trkpt lat="43.6945" lon="4.28158">
        <ele>24.14</ele>
        <time>2019-03-16T14:41:46Z</time>
      </trkpt>
      <trkpt lat="43.69458" lon="4.28175">
        <ele>23.31</ele>
        <time>2019-03-16T14:41:59Z</time>
      </trkpt>
      <trkpt lat="43.69472" lon="4.28196">
        <ele>22.99</ele>
        <time>2019-03-16T14:42:17Z</time>
      </trkpt>
      <trkpt lat="43.69486" lon="4.28213">
        <ele>23.28</ele>
        <time>2019-03-16T14:42:33Z</time>
      </trkpt>
      <trkpt lat="43.695" lon="4.28234">
        <ele>23.48</ele>
        <time>2019-03-16T14:42:49Z</time>
      </trkpt>
      <trkpt lat="43.69504" lon="4.28261">
        <ele>23.37</ele>
        <time>2019-03-16T14:43:05Z</time>
      </trkpt>
      <trkpt lat="43.69513" lon="4.28287">
        <ele>23.85</ele>
        <time>2019-03-16T14:43:22Z</time>
      </trkpt>
      <trkpt lat="43.69523" lon="4.28317">
        <ele>24.18</ele>
        <time>2019-03-16T14:43:43Z</time>
      </trkpt>
      <trkpt lat="43.69535" lon="4.28339">
        <ele>25.2</ele>
        <time>2019-03-16T14:43:59Z</time>
      </trkpt>
      <trkpt lat="43.69543" lon="4.28357">
        <ele>25.29</ele>
        <time>2019-03-16T14:44:13Z</time>
      </trkpt>
      <trkpt lat="43.69552" lon="4.28376">
        <ele>25.69</ele>
        <time>2019-03-16T14:44:27Z</time>
      </trkpt>
      <trkpt lat="43.6956" lon="4.28393">
        <ele>25.93</ele>
        <time>2019-03-16T14:44:42Z</time>
      </trkpt>
      <trkpt lat="43.69569" lon="4.28415">
        <ele>26.05</ele>
        <time>2019-03-16T14:44:57Z</time>
      </trkpt>
      <trkpt lat="43.69578" lon="4.28436">
        <ele>26.6</ele>
        <time>2019-03-16T14:45:10Z</time>
      </trkpt>
      <trkpt lat="43.69586" lon="4.28459">
        <ele>26.82</ele>
        <time>2019-03-16T14:45:25Z</time>
      </trkpt>
      <trkpt lat="43.69593" lon="4.2848">
        <ele>27.22</ele>
        <time>2019-03-16T14:45:40Z</time>
      </trkpt>
      <trkpt lat="43.696" lon="4.28503">
        <ele>27.74</ele>
        <time>2019-03-16T14:45:55Z</time>
      </trkpt>
      <trkpt lat="43.69604" lon="4.28523">
        <ele>28.16</ele>
        <time>2019-03-16T14:46:08Z</time>
      </trkpt>
      <trkpt lat="43.69606" lon="4.28536">
        <ele>28.29</ele>
        <time>2019-03-16T14:46:17Z</time>
      </trkpt>
      <trkpt lat="43.69609" lon="4.28557">
        <ele>28.68</ele>
        <time>2019-03-16T14:46:33Z</time>
      </trkpt>
      <trkpt lat="43.69613" lon="4.28569">
        <ele>28.63</ele>
        <time>2019-03-16T14:46:42Z</time>
      </trkpt>
      <trkpt lat="43.69623" lon="4.28588">
        <ele>27.6</ele>
        <time>2019-03-16T14:47:01Z</time>
      </trkpt>
      <trkpt lat="43.69624" lon="4.28592">
        <ele>27.51</ele>
        <time>2019-03-16T14:47:04Z</time>
      </trkpt>
      <trkpt lat="43.69626" lon="4.28597">
        <ele>27.38</ele>
        <time>2019-03-16T14:47:07Z</time>
      </trkpt>
      <trkpt lat="43.69636" lon="4.28623">
        <ele>26.81</ele>
        <time>2019-03-16T14:47:23Z</time>
      </trkpt>
      <trkpt lat="43.69643" lon="4.28638">
        <ele>26.73</ele>
        <time>2019-03-16T14:47:34Z</time>
      </trkpt>
      <trkpt lat="43.69652" lon="4.28662">
        <ele>26.24</ele>
        <time>2019-03-16T14:47:49Z</time>
      </trkpt>
      <trkpt lat="43.69661" lon="4.28683">
        <ele>25.49</ele>
        <time>2019-03-16T14:48:03Z</time>
      </trkpt>
      <trkpt lat="43.69661" lon="4.28688">
        <ele>25.28</ele>
        <time>2019-03-16T14:48:06Z</time>
      </trkpt>
      <trkpt lat="43.69671" lon="4.28703">
        <ele>24.22</ele>
        <time>2019-03-16T14:48:22Z</time>
      </trkpt>
      <trkpt lat="43.69682" lon="4.28719">
        <ele>22.58</ele>
        <time>2019-03-16T14:48:37Z</time>
      </trkpt>
      <trkpt lat="43.69689" lon="4.28729">
        <ele>21.77</ele>
        <time>2019-03-16T14:48:47Z</time>
      </trkpt>
      <trkpt lat="43.69691" lon="4.28733">
        <ele>21.57</ele>
        <time>2019-03-16T14:48:49Z</time>
      </trkpt>
      <trkpt lat="43.69694" lon="4.28737">
        <ele>21.26</ele>
        <time>2019-03-16T14:48:52Z</time>
      </trkpt>
      <trkpt lat="43.69705" lon="4.28754">
        <ele>20.65</ele>
        <time>2019-03-16T14:49:04Z</time>
      </trkpt>
      <trkpt lat="43.69709" lon="4.28758">
        <ele>20.39</ele>
        <time>2019-03-16T14:49:09Z</time>
      </trkpt>
      <trkpt lat="43.69718" lon="4.28777">
        <ele>19.12</ele>
        <time>2019-03-16T14:49:24Z</time>
      </trkpt>
      <trkpt lat="43.69721" lon="4.2878">
        <ele>18.81</ele>
        <time>2019-03-16T14:49:28Z</time>
      </trkpt>
      <trkpt lat="43.69729" lon="4.28786">
        <ele>17.95</ele>
        <time>2019-03-16T14:49:37Z</time>
      </trkpt>
      <trkpt lat="43.69745" lon="4.28806">
        <ele>17.04</ele>
        <time>2019-03-16T14:49:51Z</time>
      </trkpt>
      <trkpt lat="43.69748" lon="4.28809">
        <ele>16.94</ele>
        <time>2019-03-16T14:49:55Z</time>
      </trkpt>
      <trkpt lat="43.69753" lon="4.28814">
        <ele>16.74</ele>
        <time>2019-03-16T14:49:59Z</time>
      </trkpt>
      <trkpt lat="43.69764" lon="4.28831">
        <ele>16.29</ele>
        <time>2019-03-16T14:50:12Z</time>
      </trkpt>
      <trkpt lat="43.69769" lon="4.28836">
        <ele>16.04</ele>
        <time>2019-03-16T14:50:16Z</time>
      </trkpt>
      <trkpt lat="43.69775" lon="4.28845">
        <ele>15.77</ele>
        <time>2019-03-16T14:50:23Z</time>
      </trkpt>
      <trkpt lat="43.69782" lon="4.28861">
        <ele>15.19</ele>
        <time>2019-03-16T14:50:38Z</time>
      </trkpt>
      <trkpt lat="43.69786" lon="4.2887">
        <ele>14.95</ele>
        <time>2019-03-16T14:50:46Z</time>
      </trkpt>
      <trkpt lat="43.69789" lon="4.28876">
        <ele>14.86</ele>
        <time>2019-03-16T14:50:48Z</time>
      </trkpt>
      <trkpt lat="43.69792" lon="4.28883">
        <ele>14.72</ele>
        <time>2019-03-16T14:50:51Z</time>
      </trkpt>
      <trkpt lat="43.69795" lon="4.28889">
        <ele>14.69</ele>
        <time>2019-03-16T14:50:54Z</time>
      </trkpt>
      <trkpt lat="43.6981" lon="4.2891">
        <ele>14.78</ele>
        <time>2019-03-16T14:51:09Z</time>
      </trkpt>
      <trkpt lat="43.69815" lon="4.28917">
        <ele>14.28</ele>
        <time>2019-03-16T14:51:16Z</time>
      </trkpt>
      <trkpt lat="43.69825" lon="4.28931">
        <ele>14.31</ele>
        <time>2019-03-16T14:51:27Z</time>
      </trkpt>
      <trkpt lat="43.69836" lon="4.28951">
        <ele>13.93</ele>
        <time>2019-03-16T14:51:43Z</time>
      </trkpt>
      <trkpt lat="43.69843" lon="4.2897">
        <ele>13.7</ele>
        <time>2019-03-16T14:51:56Z</time>
      </trkpt>
      <trkpt lat="43.69845" lon="4.28973">
        <ele>13.83</ele>
        <time>2019-03-16T14:52:02Z</time>
      </trkpt>
      <trkpt lat="43.69847" lon="4.28976">
        <ele>13.92</ele>
        <time>2019-03-16T14:52:05Z</time>
      </trkpt>
      <trkpt lat="43.69861" lon="4.29">
        <ele>15.23</ele>
        <time>2019-03-16T14:52:21Z</time>
      </trkpt>
      <trkpt lat="43.6987" lon="4.2902">
        <ele>16.14</ele>
        <time>2019-03-16T14:52:37Z</time>
      </trkpt>
      <trkpt lat="43.69875" lon="4.29031">
        <ele>16.83</ele>
        <time>2019-03-16T14:52:45Z</time>
      </trkpt>
      <trkpt lat="43.69878" lon="4.29038">
        <ele>17.16</ele>
        <time>2019-03-16T14:52:51Z</time>
      </trkpt>
      <trkpt lat="43.69884" lon="4.29057">
        <ele>17.6</ele>
        <time>2019-03-16T14:53:06Z</time>
      </trkpt>
      <trkpt lat="43.69895" lon="4.2908">
        <ele>18.23</ele>
        <time>2019-03-16T14:53:24Z</time>
      </trkpt>
      <trkpt lat="43.69905" lon="4.29099">
        <ele>18.86</ele>
        <time>2019-03-16T14:53:41Z</time>
      </trkpt>
      <trkpt lat="43.69912" lon="4.29117">
        <ele>19.35</ele>
        <time>2019-03-16T14:53:53Z</time>
      </trkpt>
      <trkpt lat="43.69913" lon="4.29119">
        <ele>19.51</ele>
        <time>2019-03-16T14:53:55Z</time>
      </trkpt>
      <trkpt lat="43.69923" lon="4.29136">
        <ele>19.94</ele>
        <time>2019-03-16T14:54:09Z</time>
      </trkpt>
      <trkpt lat="43.69934" lon="4.29157">
        <ele>20.64</ele>
        <time>2019-03-16T14:54:23Z</time>
      </trkpt>
      <trkpt lat="43.69938" lon="4.29172">
        <ele>21.2</ele>
        <time>2019-03-16T14:54:34Z</time>
      </trkpt>
      <trkpt lat="43.69936" lon="4.29197">
        <ele>22.72</ele>
        <time>2019-03-16T14:54:52Z</time>
      </trkpt>
      <trkpt lat="43.69928" lon="4.29206">
        <ele>24.24</ele>
        <time>2019-03-16T14:55:02Z</time>
      </trkpt>
      <trkpt lat="43.69911" lon="4.2922">
        <ele>24.54</ele>
        <time>2019-03-16T14:55:18Z</time>
      </trkpt>
      <trkpt lat="43.69895" lon="4.29231">
        <ele>24.72</ele>
        <time>2019-03-16T14:55:33Z</time>
      </trkpt>
      <trkpt lat="43.69875" lon="4.29248">
        <ele>24.49</ele>
        <time>2019-03-16T14:55:53Z</time>
      </trkpt>
      <trkpt lat="43.69858" lon="4.29265">
        <ele>24.35</ele>
        <time>2019-03-16T14:56:11Z</time>
      </trkpt>
      <trkpt lat="43.69843" lon="4.29279">
        <ele>24.16</ele>
        <time>2019-03-16T14:56:28Z</time>
      </trkpt>
      <trkpt lat="43.69829" lon="4.29294">
        <ele>23.99</ele>
        <time>2019-03-16T14:56:44Z</time>
      </trkpt>
      <trkpt lat="43.69827" lon="4.29299">
        <ele>23.69</ele>
        <time>2019-03-16T14:56:49Z</time>
      </trkpt>
      <trkpt lat="43.69824" lon="4.29309">
        <ele>23.32</ele>
        <time>2019-03-16T14:56:57Z</time>
      </trkpt>
      <trkpt lat="43.69827" lon="4.29326">
        <ele>23.43</ele>
        <time>2019-03-16T14:57:10Z</time>
      </trkpt>
      <trkpt lat="43.69831" lon="4.29346">
        <ele>22.79</ele>
        <time>2019-03-16T14:57:25Z</time>
      </trkpt>
      <trkpt lat="43.69836" lon="4.29363">
        <ele>21.79</ele>
        <time>2019-03-16T14:57:38Z</time>
      </trkpt>
      <trkpt lat="43.69844" lon="4.2938">
        <ele>20.31</ele>
        <time>2019-03-16T14:57:57Z</time>
      </trkpt>
      <trkpt lat="43.69849" lon="4.29392">
        <ele>20.61</ele>
        <time>2019-03-16T14:58:12Z</time>
      </trkpt>
      <trkpt lat="43.69859" lon="4.29412">
        <ele>23.14</ele>
        <time>2019-03-16T14:58:34Z</time>
      </trkpt>
      <trkpt lat="43.69872" lon="4.29442">
        <ele>25.14</ele>
        <time>2019-03-16T14:58:51Z</time>
      </trkpt>
      <trkpt lat="43.69876" lon="4.29462">
        <ele>26.34</ele>
        <time>2019-03-16T14:59:05Z</time>
      </trkpt>
      <trkpt lat="43.69879" lon="4.29491">
        <ele>27.37</ele>
        <time>2019-03-16T14:59:20Z</time>
      </trkpt>
      <trkpt lat="43.69879" lon="4.29512">
        <ele>28.15</ele>
        <time>2019-03-16T14:59:37Z</time>
      </trkpt>
      <trkpt lat="43.69879" lon="4.2953">
        <ele>28.53</ele>
        <time>2019-03-16T14:59:51Z</time>
      </trkpt>
      <trkpt lat="43.69881" lon="4.29538">
        <ele>28.55</ele>
        <time>2019-03-16T14:59:56Z</time>
      </trkpt>
      <trkpt lat="43.6988" lon="4.29556">
        <ele>28.63</ele>
        <time>2019-03-16T15:00:03Z</time>
      </trkpt>
      <trkpt lat="43.69875" lon="4.29577">
        <ele>29.1</ele>
        <time>2019-03-16T15:00:16Z</time>
      </trkpt>
      <trkpt lat="43.69872" lon="4.29597">
        <ele>29.53</ele>
        <time>2019-03-16T15:00:28Z</time>
      </trkpt>
      <trkpt lat="43.69873" lon="4.29601">
        <ele>29.58</ele>
        <time>2019-03-16T15:00:31Z</time>
      </trkpt>
      <trkpt lat="43.69872" lon="4.29605">
        <ele>29.58</ele>
        <time>2019-03-16T15:00:34Z</time>
      </trkpt>
      <trkpt lat="43.69873" lon="4.29625">
        <ele>29.83</ele>
        <time>2019-03-16T15:00:49Z</time>
      </trkpt>
      <trkpt lat="43.69873" lon="4.2964">
        <ele>30.07</ele>
        <time>2019-03-16T15:00:59Z</time>
      </trkpt>
      <trkpt lat="43.69866" lon="4.29666">
        <ele>30.93</ele>
        <time>2019-03-16T15:01:16Z</time>
      </trkpt>
      <trkpt lat="43.69866" lon="4.29667">
        <ele>30.96</ele>
        <time>2019-03-16T15:01:17Z</time>
      </trkpt>
      <trkpt lat="43.69865" lon="4.29674">
        <ele>31.09</ele>
        <time>2019-03-16T15:01:22Z</time>
      </trkpt>
      <trkpt lat="43.69862" lon="4.29694">
        <ele>31.37</ele>
        <time>2019-03-16T15:01:37Z</time>
      </trkpt>
      <trkpt lat="43.69858" lon="4.29713">
        <ele>31.95</ele>
        <time>2019-03-16T15:01:52Z</time>
      </trkpt>
      <trkpt lat="43.69859" lon="4.29729">
        <ele>32.62</ele>
        <time>2019-03-16T15:02:06Z</time>
      </trkpt>
      <trkpt lat="43.69862" lon="4.29741">
        <ele>32.91</ele>
        <time>2019-03-16T15:02:18Z</time>
      </trkpt>
      <trkpt lat="43.69868" lon="4.29765">
        <ele>33.87</ele>
        <time>2019-03-16T15:02:39Z</time>
      </trkpt>
      <trkpt lat="43.69874" lon="4.29783">
        <ele>34.64</ele>
        <time>2019-03-16T15:02:58Z</time>
      </trkpt>
      <trkpt lat="43.69882" lon="4.29806">
        <ele>35.61</ele>
        <time>2019-03-16T15:03:16Z</time>
      </trkpt>
      <trkpt lat="43.69885" lon="4.29826">
        <ele>36.66</ele>
        <time>2019-03-16T15:03:33Z</time>
      </trkpt>
      <trkpt lat="43.69888" lon="4.29853">
        <ele>37.87</ele>
        <time>2019-03-16T15:03:52Z</time>
      </trkpt>
      <trkpt lat="43.69893" lon="4.29872">
        <ele>39.15</ele>
        <time>2019-03-16T15:04:12Z</time>
      </trkpt>
      <trkpt lat="43.6991" lon="4.29894">
        <ele>39.97</ele>
        <time>2019-03-16T15:04:33Z</time>
      </trkpt>
      <trkpt lat="43.69924" lon="4.29906">
        <ele>40.42</ele>
        <time>2019-03-16T15:04:49Z</time>
      </trkpt>
      <trkpt lat="43.69937" lon="4.29924">
        <ele>41.03</ele>
        <time>2019-03-16T15:05:11Z</time>
      </trkpt>
      <trkpt lat="43.69952" lon="4.29939">
        <ele>42.02</ele>
        <time>2019-03-16T15:05:30Z</time>
      </trkpt>
      <trkpt lat="43.69966" lon="4.29955">
        <ele>42.49</ele>
        <time>2019-03-16T15:05:45Z</time>
      </trkpt>
      <trkpt lat="43.69972" lon="4.29981">
        <ele>43.21</ele>
        <time>2019-03-16T15:06:04Z</time>
      </trkpt>
      <trkpt lat="43.69974" lon="4.30002">
        <ele>43.71</ele>
        <time>2019-03-16T15:06:14Z</time>
      </trkpt>
      <trkpt lat="43.69974" lon="4.30023">
        <ele>44.38</ele>
        <time>2019-03-16T15:06:30Z</time>
      </trkpt>
      <trkpt lat="43.69975" lon="4.30047">
        <ele>44.93</ele>
        <time>2019-03-16T15:06:49Z</time>
      </trkpt>
      <trkpt lat="43.69978" lon="4.30068">
        <ele>45.98</ele>
        <time>2019-03-16T15:07:10Z</time>
      </trkpt>
      <trkpt lat="43.69984" lon="4.30089">
        <ele>46.92</ele>
        <time>2019-03-16T15:07:29Z</time>
      </trkpt>
      <trkpt lat="43.69999" lon="4.30104">
        <ele>48.06</ele>
        <time>2019-03-16T15:07:49Z</time>
      </trkpt>
      <trkpt lat="43.70002" lon="4.30123">
        <ele>48.96</ele>
        <time>2019-03-16T15:08:07Z</time>
      </trkpt>
      <trkpt lat="43.69994" lon="4.30121">
        <ele>48.96</ele>
        <time>2019-03-16T15:08:18Z</time>
      </trkpt>
      <trkpt lat="43.69992" lon="4.30115">
        <ele>48.23</ele>
        <time>2019-03-16T15:08:32Z</time>
      </trkpt>
      <trkpt lat="43.69989" lon="4.30114">
        <ele>48.08</ele>
        <time>2019-03-16T15:08:43Z</time>
      </trkpt>
      <trkpt lat="43.69982" lon="4.3011">
        <ele>47.81</ele>
        <time>2019-03-16T15:08:53Z</time>
      </trkpt>
      <trkpt lat="43.69973" lon="4.30106">
        <ele>47.27</ele>
        <time>2019-03-16T15:09:02Z</time>
      </trkpt>
      <trkpt lat="43.69964" lon="4.30091">
        <ele>46.66</ele>
        <time>2019-03-16T15:09:18Z</time>
      </trkpt>
      <trkpt lat="43.69959" lon="4.30073">
        <ele>45.57</ele>
        <time>2019-03-16T15:09:35Z</time>
      </trkpt>
      <trkpt lat="43.69963" lon="4.30051">
        <ele>45.02</ele>
        <time>2019-03-16T15:09:52Z</time>
      </trkpt>
      <trkpt lat="43.69964" lon="4.30051">
        <ele>44.97</ele>
        <time>2019-03-16T15:09:54Z</time>
      </trkpt>
      <trkpt lat="43.6997" lon="4.30058">
        <ele>45.37</ele>
        <time>2019-03-16T15:10:06Z</time>
      </trkpt>
      <trkpt lat="43.69972" lon="4.30066">
        <ele>45.78</ele>
        <time>2019-03-16T15:10:14Z</time>
      </trkpt>
      <trkpt lat="43.69983" lon="4.30085">
        <ele>46.66</ele>
        <time>2019-03-16T15:10:29Z</time>
      </trkpt>
      <trkpt lat="43.69993" lon="4.30099">
        <ele>47.94</ele>
        <time>2019-03-16T15:10:48Z</time>
      </trkpt>
      <trkpt lat="43.69999" lon="4.30109">
        <ele>48.66</ele>
        <time>2019-03-16T15:10:57Z</time>
      </trkpt>
      <trkpt lat="43.7" lon="4.30112">
        <ele>48.83</ele>
        <time>2019-03-16T15:10:59Z</time>
      </trkpt>
      <trkpt lat="43.70006" lon="4.30129">
        <ele>50.07</ele>
        <time>2019-03-16T15:11:10Z</time>
      </trkpt>
      <trkpt lat="43.70012" lon="4.30149">
        <ele>51.28</ele>
        <time>2019-03-16T15:11:23Z</time>
      </trkpt>
      <trkpt lat="43.70016" lon="4.30164">
        <ele>52.07</ele>
        <time>2019-03-16T15:11:36Z</time>
      </trkpt>
      <trkpt lat="43.70024" lon="4.30184">
        <ele>53.7</ele>
        <time>2019-03-16T15:11:57Z</time>
      </trkpt>
      <trkpt lat="43.70029" lon="4.30197">
        <ele>54.17</ele>
        <time>2019-03-16T15:12:06Z</time>
      </trkpt>
      <trkpt lat="43.70035" lon="4.30212">
        <ele>55.25</ele>
        <time>2019-03-16T15:12:18Z</time>
      </trkpt>
      <trkpt lat="43.70039" lon="4.30236">
        <ele>56.68</ele>
        <time>2019-03-16T15:12:36Z</time>
      </trkpt>
      <trkpt lat="43.70042" lon="4.30259">
        <ele>57.74</ele>
        <time>2019-03-16T15:12:54Z</time>
      </trkpt>
      <trkpt lat="43.70046" lon="4.30279">
        <ele>58.96</ele>
        <time>2019-03-16T15:13:13Z</time>
      </trkpt>
      <trkpt lat="43.70051" lon="4.30301">
        <ele>60.15</ele>
        <time>2019-03-16T15:13:28Z</time>
      </trkpt>
      <trkpt lat="43.70053" lon="4.30309">
        <ele>60.87</ele>
        <time>2019-03-16T15:13:47Z</time>
      </trkpt>
      <trkpt lat="43.70058" lon="4.30327">
        <ele>62.14</ele>
        <time>2019-03-16T15:14:08Z</time>
      </trkpt>
      <trkpt lat="43.70066" lon="4.30355">
        <ele>64.11</ele>
        <time>2019-03-16T15:14:28Z</time>
      </trkpt>
      <trkpt lat="43.70071" lon="4.30374">
        <ele>65.92</ele>
        <time>2019-03-16T15:14:46Z</time>
      </trkpt>
      <trkpt lat="43.70081" lon="4.30399">
        <ele>68.87</ele>
        <time>2019-03-16T15:15:08Z</time>
      </trkpt>
      <trkpt lat="43.70089" lon="4.30422">
        <ele>71.09</ele>
        <time>2019-03-16T15:15:27Z</time>
      </trkpt>
      <trkpt lat="43.70093" lon="4.30442">
        <ele>72.75</ele>
        <time>2019-03-16T15:15:42Z</time>
      </trkpt>
      <trkpt lat="43.70096" lon="4.30466">
        <ele>73.2</ele>
        <time>2019-03-16T15:15:59Z</time>
      </trkpt>
      <trkpt lat="43.70104" lon="4.30484">
        <ele>73.6</ele>
        <time>2019-03-16T15:16:13Z</time>
      </trkpt>
      <trkpt lat="43.70111" lon="4.30503">
        <ele>74.07</ele>
        <time>2019-03-16T15:16:29Z</time>
      </trkpt>
      <trkpt lat="43.70117" lon="4.3052">
        <ele>74.28</ele>
        <time>2019-03-16T15:16:42Z</time>
      </trkpt>
      <trkpt lat="43.70126" lon="4.30542">
        <ele>75.18</ele>
        <time>2019-03-16T15:16:59Z</time>
      </trkpt>
      <trkpt lat="43.70135" lon="4.30559">
        <ele>75.29</ele>
        <time>2019-03-16T15:17:14Z</time>
      </trkpt>
      <trkpt lat="43.70141" lon="4.30564">
        <ele>75.05</ele>
        <time>2019-03-16T15:17:30Z</time>
      </trkpt>
      <trkpt lat="43.70151" lon="4.30582">
        <ele>74.8</ele>
        <time>2019-03-16T15:17:44Z</time>
      </trkpt>
      <trkpt lat="43.70152" lon="4.30584">
        <ele>74.76</ele>
        <time>2019-03-16T15:17:45Z</time>
      </trkpt>
      <trkpt lat="43.70157" lon="4.30592">
        <ele>74.6</ele>
        <time>2019-03-16T15:18:02Z</time>
      </trkpt>
      <trkpt lat="43.70154" lon="4.30596">
        <ele>73.95</ele>
        <time>2019-03-16T15:18:22Z</time>
      </trkpt>
      <trkpt lat="43.70154" lon="4.306">
        <ele>73.81</ele>
        <time>2019-03-16T15:18:45Z</time>
      </trkpt>
      <trkpt lat="43.70156" lon="4.306">
        <ele>74.42</ele>
        <time>2019-03-16T15:19:00Z</time>
      </trkpt>
      <trkpt lat="43.70156" lon="4.30603">
        <ele>74.6</ele>
        <time>2019-03-16T15:19:44Z</time>
      </trkpt>
      <trkpt lat="43.70158" lon="4.30614">
        <ele>74.42</ele>
        <time>2019-03-16T15:20:20Z</time>
      </trkpt>
      <trkpt lat="43.70164" lon="4.30631">
        <ele>74.41</ele>
        <time>2019-03-16T15:20:35Z</time>
      </trkpt>
      <trkpt lat="43.70168" lon="4.30654">
        <ele>74.16</ele>
        <time>2019-03-16T15:20:52Z</time>
      </trkpt>
      <trkpt lat="43.70167" lon="4.30657">
        <ele>74.04</ele>
        <time>2019-03-16T15:21:09Z</time>
      </trkpt>
      <trkpt lat="43.70166" lon="4.30658">
        <ele>74.12</ele>
        <time>2019-03-16T15:21:13Z</time>
      </trkpt>
      <trkpt lat="43.70163" lon="4.3066">
        <ele>74.21</ele>
        <time>2019-03-16T15:21:16Z</time>
      </trkpt>
      <trkpt lat="43.7015" lon="4.30679">
        <ele>74.41</ele>
        <time>2019-03-16T15:21:34Z</time>
      </trkpt>
      <trkpt lat="43.70135" lon="4.30695">
        <ele>74.76</ele>
        <time>2019-03-16T15:21:51Z</time>
      </trkpt>
      <trkpt lat="43.70119" lon="4.30714">
        <ele>74.74</ele>
        <time>2019-03-16T15:22:09Z</time>
      </trkpt>
      <trkpt lat="43.70107" lon="4.30734">
        <ele>74.81</ele>
        <time>2019-03-16T15:22:26Z</time>
      </trkpt>
      <trkpt lat="43.70096" lon="4.30755">
        <ele>74.86</ele>
        <time>2019-03-16T15:22:44Z</time>
      </trkpt>
      <trkpt lat="43.70085" lon="4.30774">
        <ele>74.88</ele>
        <time>2019-03-16T15:23:00Z</time>
      </trkpt>
      <trkpt lat="43.70074" lon="4.30792">
        <ele>75.72</ele>
        <time>2019-03-16T15:23:14Z</time>
      </trkpt>
      <trkpt lat="43.7006" lon="4.3081">
        <ele>76.15</ele>
        <time>2019-03-16T15:23:30Z</time>
      </trkpt>
      <trkpt lat="43.70042" lon="4.30828">
        <ele>76.29</ele>
        <time>2019-03-16T15:23:49Z</time>
      </trkpt>
      <trkpt lat="43.70026" lon="4.30843">
        <ele>76.4</ele>
        <time>2019-03-16T15:24:05Z</time>
      </trkpt>
      <trkpt lat="43.70009" lon="4.30857">
        <ele>76.45</ele>
        <time>2019-03-16T15:24:21Z</time>
      </trkpt>
      <trkpt lat="43.69998" lon="4.30872">
        <ele>76.88</ele>
        <time>2019-03-16T15:24:35Z</time>
      </trkpt>
      <trkpt lat="43.69985" lon="4.30891">
        <ele>77.07</ele>
        <time>2019-03-16T15:24:51Z</time>
      </trkpt>
      <trkpt lat="43.69973" lon="4.30911">
        <ele>76.97</ele>
        <time>2019-03-16T15:25:08Z</time>
      </trkpt>
      <trkpt lat="43.69958" lon="4.30934">
        <ele>77.01</ele>
        <time>2019-03-16T15:25:27Z</time>
      </trkpt>
      <trkpt lat="43.69943" lon="4.30956">
        <ele>77.27</ele>
        <time>2019-03-16T15:25:46Z</time>
      </trkpt>
      <trkpt lat="43.69927" lon="4.30972">
        <ele>77.54</ele>
        <time>2019-03-16T15:26:01Z</time>
      </trkpt>
      <trkpt lat="43.69904" lon="4.30986">
        <ele>77.56</ele>
        <time>2019-03-16T15:26:21Z</time>
      </trkpt>
      <trkpt lat="43.69885" lon="4.30992">
        <ele>77.38</ele>
        <time>2019-03-16T15:26:37Z</time>
      </trkpt>
      <trkpt lat="43.69864" lon="4.30996">
        <ele>77.05</ele>
        <time>2019-03-16T15:26:55Z</time>
      </trkpt>
      <trkpt lat="43.69841" lon="4.30997">
        <ele>77.09</ele>
        <time>2019-03-16T15:27:14Z</time>
      </trkpt>
      <trkpt lat="43.69821" lon="4.30998">
        <ele>76.82</ele>
        <time>2019-03-16T15:27:30Z</time>
      </trkpt>
      <trkpt lat="43.69801" lon="4.30999">
        <ele>76.84</ele>
        <time>2019-03-16T15:27:47Z</time>
      </trkpt>
      <trkpt lat="43.69779" lon="4.31">
        <ele>76.66</ele>
        <time>2019-03-16T15:28:07Z</time>
      </trkpt>
      <trkpt lat="43.69754" lon="4.31002">
        <ele>76.55</ele>
        <time>2019-03-16T15:28:28Z</time>
      </trkpt>
      <trkpt lat="43.69735" lon="4.3101">
        <ele>76.24</ele>
        <time>2019-03-16T15:28:45Z</time>
      </trkpt>
      <trkpt lat="43.69718" lon="4.31018">
        <ele>76.1</ele>
        <time>2019-03-16T15:29:01Z</time>
      </trkpt>
      <trkpt lat="43.69703" lon="4.31027">
        <ele>75.92</ele>
        <time>2019-03-16T15:29:16Z</time>
      </trkpt>
      <trkpt lat="43.69696" lon="4.31032">
        <ele>75.68</ele>
        <time>2019-03-16T15:29:35Z</time>
      </trkpt>
      <trkpt lat="43.69681" lon="4.31039">
        <ele>75.61</ele>
        <time>2019-03-16T15:29:53Z</time>
      </trkpt>
      <trkpt lat="43.69674" lon="4.31042">
        <ele>75.21</ele>
        <time>2019-03-16T15:30:01Z</time>
      </trkpt>
      <trkpt lat="43.69659" lon="4.31042">
        <ele>75.02</ele>
        <time>2019-03-16T15:30:15Z</time>
      </trkpt>
      <trkpt lat="43.69652" lon="4.31041">
        <ele>75.62</ele>
        <time>2019-03-16T15:30:21Z</time>
      </trkpt>
      <trkpt lat="43.69645" lon="4.31039">
        <ele>75.84</ele>
        <time>2019-03-16T15:30:28Z</time>
      </trkpt>
      <trkpt lat="43.69629" lon="4.31033">
        <ele>75.72</ele>
        <time>2019-03-16T15:30:47Z</time>
      </trkpt>
      <trkpt lat="43.69618" lon="4.31032">
        <ele>75.62</ele>
        <time>2019-03-16T15:31:03Z</time>
      </trkpt>
      <trkpt lat="43.69606" lon="4.31029">
        <ele>75.26</ele>
        <time>2019-03-16T15:31:16Z</time>
      </trkpt>
      <trkpt lat="43.69588" lon="4.31025">
        <ele>74.92</ele>
        <time>2019-03-16T15:31:34Z</time>
      </trkpt>
      <trkpt lat="43.69573" lon="4.3102">
        <ele>74.79</ele>
        <time>2019-03-16T15:31:49Z</time>
      </trkpt>
      <trkpt lat="43.69566" lon="4.31018">
        <ele>74.73</ele>
        <time>2019-03-16T15:31:57Z</time>
      </trkpt>
      <trkpt lat="43.69552" lon="4.31011">
        <ele>74.45</ele>
        <time>2019-03-16T15:32:12Z</time>
      </trkpt>
      <trkpt lat="43.69536" lon="4.31002">
        <ele>74.26</ele>
        <time>2019-03-16T15:32:30Z</time>
      </trkpt>
      <trkpt lat="43.6953" lon="4.31">
        <ele>74.05</ele>
        <time>2019-03-16T15:32:37Z</time>
      </trkpt>
      <trkpt lat="43.69512" lon="4.30996">
        <ele>73.54</ele>
        <time>2019-03-16T15:32:55Z</time>
      </trkpt>
      <trkpt lat="43.69503" lon="4.30994">
        <ele>73.48</ele>
        <time>2019-03-16T15:33:02Z</time>
      </trkpt>
      <trkpt lat="43.69487" lon="4.31001">
        <ele>73</ele>
        <time>2019-03-16T15:33:17Z</time>
      </trkpt>
      <trkpt lat="43.69471" lon="4.31003">
        <ele>72.77</ele>
        <time>2019-03-16T15:33:32Z</time>
      </trkpt>
      <trkpt lat="43.69446" lon="4.31002">
        <ele>72.82</ele>
        <time>2019-03-16T15:33:52Z</time>
      </trkpt>
      <trkpt lat="43.69429" lon="4.30999">
        <ele>72.84</ele>
        <time>2019-03-16T15:34:07Z</time>
      </trkpt>
      <trkpt lat="43.69408" lon="4.30996">
        <ele>72.98</ele>
        <time>2019-03-16T15:34:24Z</time>
      </trkpt>
      <trkpt lat="43.69404" lon="4.30994">
        <ele>72.84</ele>
        <time>2019-03-16T15:34:29Z</time>
      </trkpt>
      <trkpt lat="43.6939" lon="4.30992">
        <ele>72.68</ele>
        <time>2019-03-16T15:34:41Z</time>
      </trkpt>
      <trkpt lat="43.69374" lon="4.30987">
        <ele>72.73</ele>
        <time>2019-03-16T15:34:57Z</time>
      </trkpt>
      <trkpt lat="43.69351" lon="4.30978">
        <ele>72.26</ele>
        <time>2019-03-16T15:35:18Z</time>
      </trkpt>
      <trkpt lat="43.69342" lon="4.30973">
        <ele>72.1</ele>
        <time>2019-03-16T15:35:26Z</time>
      </trkpt>
      <trkpt lat="43.69337" lon="4.30969">
        <ele>72.03</ele>
        <time>2019-03-16T15:35:31Z</time>
      </trkpt>
      <trkpt lat="43.69316" lon="4.30958">
        <ele>72.06</ele>
        <time>2019-03-16T15:35:49Z</time>
      </trkpt>
      <trkpt lat="43.69309" lon="4.3096">
        <ele>72.33</ele>
        <time>2019-03-16T15:36:00Z</time>
      </trkpt>
      <trkpt lat="43.69305" lon="4.30957">
        <ele>72.33</ele>
        <time>2019-03-16T15:36:03Z</time>
      </trkpt>
      <trkpt lat="43.69292" lon="4.30935">
        <ele>72.09</ele>
        <time>2019-03-16T15:36:17Z</time>
      </trkpt>
      <trkpt lat="43.69296" lon="4.30903">
        <ele>71.7</ele>
        <time>2019-03-16T15:36:33Z</time>
      </trkpt>
      <trkpt lat="43.69298" lon="4.30876">
        <ele>70.54</ele>
        <time>2019-03-16T15:36:48Z</time>
      </trkpt>
      <trkpt lat="43.69304" lon="4.30838">
        <ele>69.3</ele>
        <time>2019-03-16T15:37:10Z</time>
      </trkpt>
      <trkpt lat="43.69311" lon="4.30808">
        <ele>68.33</ele>
        <time>2019-03-16T15:37:28Z</time>
      </trkpt>
      <trkpt lat="43.69319" lon="4.30779">
        <ele>67.98</ele>
        <time>2019-03-16T15:37:46Z</time>
      </trkpt>
      <trkpt lat="43.69328" lon="4.30751">
        <ele>67.99</ele>
        <time>2019-03-16T15:38:05Z</time>
      </trkpt>
      <trkpt lat="43.69336" lon="4.30727">
        <ele>67.82</ele>
        <time>2019-03-16T15:38:22Z</time>
      </trkpt>
      <trkpt lat="43.69339" lon="4.30712">
        <ele>67.93</ele>
        <time>2019-03-16T15:38:35Z</time>
      </trkpt>
      <trkpt lat="43.6934" lon="4.30712">
        <ele>67.61</ele>
        <time>2019-03-16T15:39:01Z</time>
      </trkpt>
      <trkpt lat="43.69342" lon="4.30711">
        <ele>67.75</ele>
        <time>2019-03-16T15:39:27Z</time>
      </trkpt>
      <trkpt lat="43.69345" lon="4.30708">
        <ele>67.9</ele>
        <time>2019-03-16T15:39:44Z</time>
      </trkpt>
      <trkpt lat="43.69346" lon="4.30706">
        <ele>68.26</ele>
        <time>2019-03-16T15:40:06Z</time>
      </trkpt>
      <trkpt lat="43.69347" lon="4.30707">
        <ele>68.53</ele>
        <time>2019-03-16T15:40:57Z</time>
      </trkpt>
      <trkpt lat="43.69345" lon="4.30708">
        <ele>68.53</ele>
        <time>2019-03-16T15:41:39Z</time>
      </trkpt>
      <trkpt lat="43.69349" lon="4.30696">
        <ele>68.57</ele>
        <time>2019-03-16T15:42:03Z</time>
      </trkpt>
      <trkpt lat="43.69352" lon="4.30679">
        <ele>69.4</ele>
        <time>2019-03-16T15:42:17Z</time>
      </trkpt>
      <trkpt lat="43.69356" lon="4.30658">
        <ele>70.47</ele>
        <time>2019-03-16T15:42:34Z</time>
      </trkpt>
      <trkpt lat="43.69358" lon="4.30647">
        <ele>71.09</ele>
        <time>2019-03-16T15:42:42Z</time>
      </trkpt>
      <trkpt lat="43.69365" lon="4.30625">
        <ele>70.63</ele>
        <time>2019-03-16T15:42:59Z</time>
      </trkpt>
      <trkpt lat="43.69372" lon="4.30604">
        <ele>69.39</ele>
        <time>2019-03-16T15:43:16Z</time>
      </trkpt>
      <trkpt lat="43.69373" lon="4.30603">
        <ele>69.14</ele>
        <time>2019-03-16T15:43:18Z</time>
      </trkpt>
      <trkpt lat="43.69388" lon="4.30604">
        <ele>67.69</ele>
        <time>2019-03-16T15:43:32Z</time>
      </trkpt>
      <trkpt lat="43.6939" lon="4.306">
        <ele>67.36</ele>
        <time>2019-03-16T15:43:38Z</time>
      </trkpt>
      <trkpt lat="43.69395" lon="4.30595">
        <ele>66.72</ele>
        <time>2019-03-16T15:43:54Z</time>
      </trkpt>
      <trkpt lat="43.69397" lon="4.30599">
        <ele>66.72</ele>
        <time>2019-03-16T15:43:58Z</time>
      </trkpt>
      <trkpt lat="43.69399" lon="4.30608">
        <ele>67.01</ele>
        <time>2019-03-16T15:44:06Z</time>
      </trkpt>
      <trkpt lat="43.69401" lon="4.3061">
        <ele>67.2</ele>
        <time>2019-03-16T15:44:08Z</time>
      </trkpt>
      <trkpt lat="43.69408" lon="4.30621">
        <ele>67.59</ele>
        <time>2019-03-16T15:44:21Z</time>
      </trkpt>
      <trkpt lat="43.69403" lon="4.30618">
        <ele>67.47</ele>
        <time>2019-03-16T15:44:29Z</time>
      </trkpt>
      <trkpt lat="43.694" lon="4.30613">
        <ele>67.25</ele>
        <time>2019-03-16T15:44:45Z</time>
      </trkpt>
      <trkpt lat="43.69398" lon="4.30615">
        <ele>67.22</ele>
        <time>2019-03-16T15:44:48Z</time>
      </trkpt>
      <trkpt lat="43.69386" lon="4.30614">
        <ele>67.81</ele>
        <time>2019-03-16T15:45:02Z</time>
      </trkpt>
      <trkpt lat="43.69373" lon="4.30599">
        <ele>68.22</ele>
        <time>2019-03-16T15:45:18Z</time>
      </trkpt>
      <trkpt lat="43.69371" lon="4.30575">
        <ele>66.67</ele>
        <time>2019-03-16T15:45:36Z</time>
      </trkpt>
      <trkpt lat="43.69369" lon="4.30569">
        <ele>66.26</ele>
        <time>2019-03-16T15:45:40Z</time>
      </trkpt>
      <trkpt lat="43.6937" lon="4.30544">
        <ele>65.25</ele>
        <time>2019-03-16T15:45:55Z</time>
      </trkpt>
      <trkpt lat="43.69373" lon="4.30521">
        <ele>64.14</ele>
        <time>2019-03-16T15:46:10Z</time>
      </trkpt>
      <trkpt lat="43.69379" lon="4.30499">
        <ele>62.9</ele>
        <time>2019-03-16T15:46:25Z</time>
      </trkpt>
      <trkpt lat="43.69388" lon="4.30473">
        <ele>61.38</ele>
        <time>2019-03-16T15:46:43Z</time>
      </trkpt>
      <trkpt lat="43.6939" lon="4.30468">
        <ele>61.25</ele>
        <time>2019-03-16T15:46:47Z</time>
      </trkpt>
      <trkpt lat="43.69389" lon="4.30451">
        <ele>60.69</ele>
        <time>2019-03-16T15:47:01Z</time>
      </trkpt>
      <trkpt lat="43.69384" lon="4.30431">
        <ele>58.99</ele>
        <time>2019-03-16T15:47:19Z</time>
      </trkpt>
      <trkpt lat="43.69382" lon="4.3041">
        <ele>56.3</ele>
        <time>2019-03-16T15:47:39Z</time>
      </trkpt>
      <trkpt lat="43.69381" lon="4.30395">
        <ele>53.74</ele>
        <time>2019-03-16T15:48:01Z</time>
      </trkpt>
      <trkpt lat="43.69371" lon="4.3037">
        <ele>51.38</ele>
        <time>2019-03-16T15:48:23Z</time>
      </trkpt>
      <trkpt lat="43.69371" lon="4.30363">
        <ele>50.74</ele>
        <time>2019-03-16T15:48:28Z</time>
      </trkpt>
      <trkpt lat="43.69376" lon="4.30331">
        <ele>47.88</ele>
        <time>2019-03-16T15:48:47Z</time>
      </trkpt>
      <trkpt lat="43.69378" lon="4.303">
        <ele>45.52</ele>
        <time>2019-03-16T15:49:03Z</time>
      </trkpt>
      <trkpt lat="43.69382" lon="4.30282">
        <ele>42.48</ele>
        <time>2019-03-16T15:49:20Z</time>
      </trkpt>
      <trkpt lat="43.69383" lon="4.30279">
        <ele>41.84</ele>
        <time>2019-03-16T15:49:24Z</time>
      </trkpt>
      <trkpt lat="43.69385" lon="4.30262">
        <ele>38.92</ele>
        <time>2019-03-16T15:49:44Z</time>
      </trkpt>
      <trkpt lat="43.6939" lon="4.30245">
        <ele>37.06</ele>
        <time>2019-03-16T15:50:00Z</time>
      </trkpt>
      <trkpt lat="43.69388" lon="4.30222">
        <ele>36.74</ele>
        <time>2019-03-16T15:50:21Z</time>
      </trkpt>
      <trkpt lat="43.69394" lon="4.30211">
        <ele>36.54</ele>
        <time>2019-03-16T15:50:31Z</time>
      </trkpt>
      <trkpt lat="43.69401" lon="4.30186">
        <ele>38.06</ele>
        <time>2019-03-16T15:50:54Z</time>
      </trkpt>
      <trkpt lat="43.69405" lon="4.30169">
        <ele>39.9</ele>
        <time>2019-03-16T15:51:11Z</time>
      </trkpt>
      <trkpt lat="43.69403" lon="4.3016">
        <ele>40.64</ele>
        <time>2019-03-16T15:51:17Z</time>
      </trkpt>
      <trkpt lat="43.69402" lon="4.30156">
        <ele>40.96</ele>
        <time>2019-03-16T15:51:19Z</time>
      </trkpt>
      <trkpt lat="43.69401" lon="4.30111">
        <ele>42.38</ele>
        <time>2019-03-16T15:51:34Z</time>
      </trkpt>
      <trkpt lat="43.69399" lon="4.30091">
        <ele>42.51</ele>
        <time>2019-03-16T15:51:47Z</time>
      </trkpt>
      <trkpt lat="43.69396" lon="4.30075">
        <ele>42.56</ele>
        <time>2019-03-16T15:51:58Z</time>
      </trkpt>
      <trkpt lat="43.69395" lon="4.30068">
        <ele>42.48</ele>
        <time>2019-03-16T15:52:03Z</time>
      </trkpt>
      <trkpt lat="43.69393" lon="4.30062">
        <ele>42.09</ele>
        <time>2019-03-16T15:52:08Z</time>
      </trkpt>
      <trkpt lat="43.69392" lon="4.30056">
        <ele>41.72</ele>
        <time>2019-03-16T15:52:12Z</time>
      </trkpt>
      <trkpt lat="43.69387" lon="4.30041">
        <ele>40.92</ele>
        <time>2019-03-16T15:52:24Z</time>
      </trkpt>
      <trkpt lat="43.69383" lon="4.30033">
        <ele>41.09</ele>
        <time>2019-03-16T15:52:31Z</time>
      </trkpt>
      <trkpt lat="43.69383" lon="4.30031">
        <ele>41.19</ele>
        <time>2019-03-16T15:52:33Z</time>
      </trkpt>
      <trkpt lat="43.69381" lon="4.30026">
        <ele>41.39</ele>
        <time>2019-03-16T15:52:36Z</time>
      </trkpt>
      <trkpt lat="43.69383" lon="4.3001">
        <ele>41.75</ele>
        <time>2019-03-16T15:52:49Z</time>
      </trkpt>
      <trkpt lat="43.69382" lon="4.2999">
        <ele>41.44</ele>
        <time>2019-03-16T15:53:07Z</time>
      </trkpt>
      <trkpt lat="43.69382" lon="4.29963">
        <ele>41.15</ele>
        <time>2019-03-16T15:53:26Z</time>
      </trkpt>
      <trkpt lat="43.69385" lon="4.29949">
        <ele>40.98</ele>
        <time>2019-03-16T15:53:31Z</time>
      </trkpt>
      <trkpt lat="43.69384" lon="4.29922">
        <ele>40.83</ele>
        <time>2019-03-16T15:53:43Z</time>
      </trkpt>
      <trkpt lat="43.69387" lon="4.29902">
        <ele>40.77</ele>
        <time>2019-03-16T15:53:55Z</time>
      </trkpt>
      <trkpt lat="43.69394" lon="4.29878">
        <ele>40.52</ele>
        <time>2019-03-16T15:54:17Z</time>
      </trkpt>
      <trkpt lat="43.69393" lon="4.29869">
        <ele>40.37</ele>
        <time>2019-03-16T15:54:23Z</time>
      </trkpt>
      <trkpt lat="43.69394" lon="4.29861">
        <ele>40.3</ele>
        <time>2019-03-16T15:54:29Z</time>
      </trkpt>
      <trkpt lat="43.69397" lon="4.29844">
        <ele>39.66</ele>
        <time>2019-03-16T15:54:40Z</time>
      </trkpt>
      <trkpt lat="43.69401" lon="4.29827">
        <ele>39.2</ele>
        <time>2019-03-16T15:54:55Z</time>
      </trkpt>
      <trkpt lat="43.69411" lon="4.29804">
        <ele>39.01</ele>
        <time>2019-03-16T15:55:12Z</time>
      </trkpt>
      <trkpt lat="43.69417" lon="4.29791">
        <ele>38.49</ele>
        <time>2019-03-16T15:55:21Z</time>
      </trkpt>
      <trkpt lat="43.69418" lon="4.29788">
        <ele>38.43</ele>
        <time>2019-03-16T15:55:23Z</time>
      </trkpt>
      <trkpt lat="43.69422" lon="4.29778">
        <ele>38.13</ele>
        <time>2019-03-16T15:55:30Z</time>
      </trkpt>
      <trkpt lat="43.69429" lon="4.29753">
        <ele>37.62</ele>
        <time>2019-03-16T15:55:49Z</time>
      </trkpt>
      <trkpt lat="43.69436" lon="4.2973">
        <ele>36.95</ele>
        <time>2019-03-16T15:56:06Z</time>
      </trkpt>
      <trkpt lat="43.69447" lon="4.29707">
        <ele>36.52</ele>
        <time>2019-03-16T15:56:24Z</time>
      </trkpt>
      <trkpt lat="43.69452" lon="4.2969">
        <ele>35.64</ele>
        <time>2019-03-16T15:56:38Z</time>
      </trkpt>
      <trkpt lat="43.69451" lon="4.29664">
        <ele>35.11</ele>
        <time>2019-03-16T15:57:00Z</time>
      </trkpt>
      <trkpt lat="43.69459" lon="4.29628">
        <ele>33.75</ele>
        <time>2019-03-16T15:57:22Z</time>
      </trkpt>
      <trkpt lat="43.69462" lon="4.2961">
        <ele>32.52</ele>
        <time>2019-03-16T15:57:39Z</time>
      </trkpt>
      <trkpt lat="43.69462" lon="4.29606">
        <ele>32.39</ele>
        <time>2019-03-16T15:57:42Z</time>
      </trkpt>
      <trkpt lat="43.69463" lon="4.29586">
        <ele>31.36</ele>
        <time>2019-03-16T15:57:55Z</time>
      </trkpt>
      <trkpt lat="43.69464" lon="4.29556">
        <ele>30.09</ele>
        <time>2019-03-16T15:58:14Z</time>
      </trkpt>
      <trkpt lat="43.69462" lon="4.29532">
        <ele>28.11</ele>
        <time>2019-03-16T15:58:33Z</time>
      </trkpt>
      <trkpt lat="43.69465" lon="4.295">
        <ele>26.97</ele>
        <time>2019-03-16T15:58:50Z</time>
      </trkpt>
      <trkpt lat="43.6948" lon="4.29476">
        <ele>26.73</ele>
        <time>2019-03-16T15:59:08Z</time>
      </trkpt>
      <trkpt lat="43.69487" lon="4.29458">
        <ele>26.72</ele>
        <time>2019-03-16T15:59:23Z</time>
      </trkpt>
      <trkpt lat="43.69495" lon="4.29437">
        <ele>26.63</ele>
        <time>2019-03-16T15:59:35Z</time>
      </trkpt>
      <trkpt lat="43.69501" lon="4.29432">
        <ele>26.57</ele>
        <time>2019-03-16T15:59:42Z</time>
      </trkpt>
      <trkpt lat="43.6951" lon="4.29412">
        <ele>27.21</ele>
        <time>2019-03-16T15:59:57Z</time>
      </trkpt>
      <trkpt lat="43.69511" lon="4.29407">
        <ele>27.11</ele>
        <time>2019-03-16T16:00:01Z</time>
      </trkpt>
      <trkpt lat="43.69508" lon="4.2939">
        <ele>26.99</ele>
        <time>2019-03-16T16:00:11Z</time>
      </trkpt>
      <trkpt lat="43.69507" lon="4.29384">
        <ele>27.01</ele>
        <time>2019-03-16T16:00:15Z</time>
      </trkpt>
      <trkpt lat="43.69512" lon="4.29374">
        <ele>27.05</ele>
        <time>2019-03-16T16:00:22Z</time>
      </trkpt>
      <trkpt lat="43.69511" lon="4.29364">
        <ele>27.05</ele>
        <time>2019-03-16T16:00:27Z</time>
      </trkpt>
      <trkpt lat="43.69515" lon="4.29341">
        <ele>26.57</ele>
        <time>2019-03-16T16:00:42Z</time>
      </trkpt>
      <trkpt lat="43.69522" lon="4.29314">
        <ele>26.26</ele>
        <time>2019-03-16T16:01:01Z</time>
      </trkpt>
      <trkpt lat="43.69524" lon="4.29301">
        <ele>26.17</ele>
        <time>2019-03-16T16:01:09Z</time>
      </trkpt>
      <trkpt lat="43.69528" lon="4.29274">
        <ele>26.33</ele>
        <time>2019-03-16T16:01:26Z</time>
      </trkpt>
      <trkpt lat="43.69529" lon="4.29267">
        <ele>26.34</ele>
        <time>2019-03-16T16:01:30Z</time>
      </trkpt>
      <trkpt lat="43.69534" lon="4.29246">
        <ele>26.24</ele>
        <time>2019-03-16T16:01:45Z</time>
      </trkpt>
      <trkpt lat="43.69541" lon="4.29227">
        <ele>26.57</ele>
        <time>2019-03-16T16:02:00Z</time>
      </trkpt>
      <trkpt lat="43.6954" lon="4.29203">
        <ele>26.5</ele>
        <time>2019-03-16T16:02:15Z</time>
      </trkpt>
      <trkpt lat="43.6954" lon="4.29198">
        <ele>26.36</ele>
        <time>2019-03-16T16:02:19Z</time>
      </trkpt>
      <trkpt lat="43.69544" lon="4.29181">
        <ele>26.37</ele>
        <time>2019-03-16T16:02:32Z</time>
      </trkpt>
      <trkpt lat="43.69543" lon="4.29175">
        <ele>26.31</ele>
        <time>2019-03-16T16:02:36Z</time>
      </trkpt>
      <trkpt lat="43.69537" lon="4.29148">
        <ele>26.32</ele>
        <time>2019-03-16T16:02:51Z</time>
      </trkpt>
      <trkpt lat="43.69538" lon="4.29128">
        <ele>26.27</ele>
        <time>2019-03-16T16:03:05Z</time>
      </trkpt>
      <trkpt lat="43.69536" lon="4.29118">
        <ele>26.21</ele>
        <time>2019-03-16T16:03:11Z</time>
      </trkpt>
      <trkpt lat="43.69538" lon="4.29109">
        <ele>26.13</ele>
        <time>2019-03-16T16:03:17Z</time>
      </trkpt>
      <trkpt lat="43.69537" lon="4.29099">
        <ele>26.05</ele>
        <time>2019-03-16T16:03:25Z</time>
      </trkpt>
      <trkpt lat="43.69534" lon="4.29078">
        <ele>26.24</ele>
        <time>2019-03-16T16:03:47Z</time>
      </trkpt>
      <trkpt lat="43.69534" lon="4.29069">
        <ele>26.17</ele>
        <time>2019-03-16T16:03:52Z</time>
      </trkpt>
      <trkpt lat="43.69533" lon="4.2906">
        <ele>25.97</ele>
        <time>2019-03-16T16:03:56Z</time>
      </trkpt>
      <trkpt lat="43.69538" lon="4.29029">
        <ele>25.85</ele>
        <time>2019-03-16T16:04:11Z</time>
      </trkpt>
      <trkpt lat="43.69543" lon="4.29009">
        <ele>25.84</ele>
        <time>2019-03-16T16:04:25Z</time>
      </trkpt>
      <trkpt lat="43.69545" lon="4.28989">
        <ele>25.81</ele>
        <time>2019-03-16T16:04:43Z</time>
      </trkpt>
      <trkpt lat="43.69548" lon="4.28966">
        <ele>26.03</ele>
        <time>2019-03-16T16:04:59Z</time>
      </trkpt>
      <trkpt lat="43.69551" lon="4.28942">
        <ele>26.24</ele>
        <time>2019-03-16T16:05:13Z</time>
      </trkpt>
      <trkpt lat="43.69559" lon="4.28914">
        <ele>26.06</ele>
        <time>2019-03-16T16:05:29Z</time>
      </trkpt>
      <trkpt lat="43.69563" lon="4.28905">
        <ele>26.06</ele>
        <time>2019-03-16T16:05:49Z</time>
      </trkpt>
      <trkpt lat="43.69564" lon="4.28902">
        <ele>26.05</ele>
        <time>2019-03-16T16:06:04Z</time>
      </trkpt>
      <trkpt lat="43.69568" lon="4.28894">
        <ele>26.07</ele>
        <time>2019-03-16T16:06:12Z</time>
      </trkpt>
      <trkpt lat="43.6957" lon="4.28889">
        <ele>26.05</ele>
        <time>2019-03-16T16:06:16Z</time>
      </trkpt>
      <trkpt lat="43.69572" lon="4.28885">
        <ele>26.01</ele>
        <time>2019-03-16T16:06:19Z</time>
      </trkpt>
      <trkpt lat="43.69574" lon="4.28881">
        <ele>26</ele>
        <time>2019-03-16T16:06:22Z</time>
      </trkpt>
      <trkpt lat="43.69575" lon="4.28878">
        <ele>26.05</ele>
        <time>2019-03-16T16:06:24Z</time>
      </trkpt>
      <trkpt lat="43.69577" lon="4.2887">
        <ele>26.22</ele>
        <time>2019-03-16T16:06:31Z</time>
      </trkpt>
      <trkpt lat="43.69578" lon="4.28868">
        <ele>26.25</ele>
        <time>2019-03-16T16:06:33Z</time>
      </trkpt>
      <trkpt lat="43.69585" lon="4.28851">
        <ele>26.54</ele>
        <time>2019-03-16T16:06:47Z</time>
      </trkpt>
      <trkpt lat="43.69588" lon="4.28842">
        <ele>26.55</ele>
        <time>2019-03-16T16:06:52Z</time>
      </trkpt>
      <trkpt lat="43.69597" lon="4.28825">
        <ele>26.84</ele>
        <time>2019-03-16T16:07:05Z</time>
      </trkpt>
      <trkpt lat="43.696" lon="4.28808">
        <ele>27.59</ele>
        <time>2019-03-16T16:07:20Z</time>
      </trkpt>
      <trkpt lat="43.69604" lon="4.28788">
        <ele>28.04</ele>
        <time>2019-03-16T16:07:36Z</time>
      </trkpt>
      <trkpt lat="43.69609" lon="4.2877">
        <ele>28.68</ele>
        <time>2019-03-16T16:07:50Z</time>
      </trkpt>
      <trkpt lat="43.69613" lon="4.28745">
        <ele>29.36</ele>
        <time>2019-03-16T16:08:06Z</time>
      </trkpt>
      <trkpt lat="43.69616" lon="4.28718">
        <ele>30.66</ele>
        <time>2019-03-16T16:08:24Z</time>
      </trkpt>
      <trkpt lat="43.69617" lon="4.28698">
        <ele>31.25</ele>
        <time>2019-03-16T16:08:37Z</time>
      </trkpt>
      <trkpt lat="43.69618" lon="4.28681">
        <ele>31.73</ele>
        <time>2019-03-16T16:08:47Z</time>
      </trkpt>
      <trkpt lat="43.69618" lon="4.2867">
        <ele>32.01</ele>
        <time>2019-03-16T16:08:53Z</time>
      </trkpt>
      <trkpt lat="43.69618" lon="4.28646">
        <ele>32.51</ele>
        <time>2019-03-16T16:09:07Z</time>
      </trkpt>
      <trkpt lat="43.69617" lon="4.28631">
        <ele>32.64</ele>
        <time>2019-03-16T16:09:15Z</time>
      </trkpt>
      <trkpt lat="43.69615" lon="4.28616">
        <ele>32.7</ele>
        <time>2019-03-16T16:09:26Z</time>
      </trkpt>
      <trkpt lat="43.69612" lon="4.28602">
        <ele>32.62</ele>
        <time>2019-03-16T16:09:39Z</time>
      </trkpt>
      <trkpt lat="43.69602" lon="4.2858">
        <ele>32.49</ele>
        <time>2019-03-16T16:09:55Z</time>
      </trkpt>
      <trkpt lat="43.69602" lon="4.28579">
        <ele>32.51</ele>
        <time>2019-03-16T16:09:56Z</time>
      </trkpt>
      <trkpt lat="43.69599" lon="4.28561">
        <ele>32.53</ele>
        <time>2019-03-16T16:10:10Z</time>
      </trkpt>
      <trkpt lat="43.69599" lon="4.28559">
        <ele>32.52</ele>
        <time>2019-03-16T16:10:11Z</time>
      </trkpt>
      <trkpt lat="43.69594" lon="4.28547">
        <ele>32.47</ele>
        <time>2019-03-16T16:10:17Z</time>
      </trkpt>
      <trkpt lat="43.69593" lon="4.28539">
        <ele>32.5</ele>
        <time>2019-03-16T16:10:22Z</time>
      </trkpt>
      <trkpt lat="43.69593" lon="4.28514">
        <ele>32.41</ele>
        <time>2019-03-16T16:10:39Z</time>
      </trkpt>
      <trkpt lat="43.69592" lon="4.28502">
        <ele>32.62</ele>
        <time>2019-03-16T16:10:46Z</time>
      </trkpt>
      <trkpt lat="43.69588" lon="4.28488">
        <ele>32.35</ele>
        <time>2019-03-16T16:10:54Z</time>
      </trkpt>
      <trkpt lat="43.69587" lon="4.28481">
        <ele>32.12</ele>
        <time>2019-03-16T16:10:58Z</time>
      </trkpt>
      <trkpt lat="43.69587" lon="4.28468">
        <ele>31.87</ele>
        <time>2019-03-16T16:11:08Z</time>
      </trkpt>
      <trkpt lat="43.69578" lon="4.28453">
        <ele>31.41</ele>
        <time>2019-03-16T16:11:26Z</time>
      </trkpt>
      <trkpt lat="43.69577" lon="4.28451">
        <ele>31.35</ele>
        <time>2019-03-16T16:11:28Z</time>
      </trkpt>
      <trkpt lat="43.69567" lon="4.28435">
        <ele>31.15</ele>
        <time>2019-03-16T16:11:41Z</time>
      </trkpt>
      <trkpt lat="43.69564" lon="4.28423">
        <ele>31.15</ele>
        <time>2019-03-16T16:11:47Z</time>
      </trkpt>
      <trkpt lat="43.69553" lon="4.28403">
        <ele>30.98</ele>
        <time>2019-03-16T16:11:59Z</time>
      </trkpt>
      <trkpt lat="43.69546" lon="4.28379">
        <ele>30.55</ele>
        <time>2019-03-16T16:12:15Z</time>
      </trkpt>
      <trkpt lat="43.69544" lon="4.28375">
        <ele>30.48</ele>
        <time>2019-03-16T16:12:18Z</time>
      </trkpt>
      <trkpt lat="43.69543" lon="4.28372">
        <ele>30.45</ele>
        <time>2019-03-16T16:12:20Z</time>
      </trkpt>
      <trkpt lat="43.69532" lon="4.28357">
        <ele>30.32</ele>
        <time>2019-03-16T16:12:33Z</time>
      </trkpt>
      <trkpt lat="43.69527" lon="4.2834">
        <ele>30</ele>
        <time>2019-03-16T16:12:45Z</time>
      </trkpt>
      <trkpt lat="43.69522" lon="4.28326">
        <ele>29.66</ele>
        <time>2019-03-16T16:12:55Z</time>
      </trkpt>
      <trkpt lat="43.69513" lon="4.28297">
        <ele>29.2</ele>
        <time>2019-03-16T16:13:12Z</time>
      </trkpt>
      <trkpt lat="43.69503" lon="4.28273">
        <ele>28.87</ele>
        <time>2019-03-16T16:13:26Z</time>
      </trkpt>
      <trkpt lat="43.69503" lon="4.28266">
        <ele>28.84</ele>
        <time>2019-03-16T16:13:44Z</time>
      </trkpt>
      <trkpt lat="43.69506" lon="4.28262">
        <ele>29.01</ele>
        <time>2019-03-16T16:14:09Z</time>
      </trkpt>
      <trkpt lat="43.69504" lon="4.28259">
        <ele>28.96</ele>
        <time>2019-03-16T16:14:18Z</time>
      </trkpt>
      <trkpt lat="43.69498" lon="4.28252">
        <ele>29.06</ele>
        <time>2019-03-16T16:14:25Z</time>
      </trkpt>
      <trkpt lat="43.69491" lon="4.2824">
        <ele>28.97</ele>
        <time>2019-03-16T16:14:36Z</time>
      </trkpt>
      <trkpt lat="43.69486" lon="4.28233">
        <ele>28.97</ele>
        <time>2019-03-16T16:14:41Z</time>
      </trkpt>
      <trkpt lat="43.69483" lon="4.28228">
        <ele>29.05</ele>
        <time>2019-03-16T16:14:44Z</time>
      </trkpt>
      <trkpt lat="43.69473" lon="4.28198">
        <ele>28.77</ele>
        <time>2019-03-16T16:15:02Z</time>
      </trkpt>
      <trkpt lat="43.69468" lon="4.28186">
        <ele>28.71</ele>
        <time>2019-03-16T16:15:13Z</time>
      </trkpt>
      <trkpt lat="43.69467" lon="4.2818">
        <ele>28.71</ele>
        <time>2019-03-16T16:15:17Z</time>
      </trkpt>
      <trkpt lat="43.69461" lon="4.28161">
        <ele>28.65</ele>
        <time>2019-03-16T16:15:31Z</time>
      </trkpt>
      <trkpt lat="43.69461" lon="4.28157">
        <ele>28.76</ele>
        <time>2019-03-16T16:15:33Z</time>
      </trkpt>
      <trkpt lat="43.69458" lon="4.28152">
        <ele>29.02</ele>
        <time>2019-03-16T16:15:37Z</time>
      </trkpt>
      <trkpt lat="43.69456" lon="4.28148">
        <ele>29.23</ele>
        <time>2019-03-16T16:15:40Z</time>
      </trkpt>
      <trkpt lat="43.69449" lon="4.28143">
        <ele>29.53</ele>
        <time>2019-03-16T16:15:46Z</time>
      </trkpt>
      <trkpt lat="43.69435" lon="4.28132">
        <ele>30.43</ele>
        <time>2019-03-16T16:16:03Z</time>
      </trkpt>
      <trkpt lat="43.6943" lon="4.28122">
        <ele>30.49</ele>
        <time>2019-03-16T16:16:10Z</time>
      </trkpt>
      <trkpt lat="43.69422" lon="4.28103">
        <ele>30.94</ele>
        <time>2019-03-16T16:16:22Z</time>
      </trkpt>
      <trkpt lat="43.69414" lon="4.28085">
        <ele>31.35</ele>
        <time>2019-03-16T16:16:37Z</time>
      </trkpt>
      <trkpt lat="43.69408" lon="4.28076">
        <ele>31.64</ele>
        <time>2019-03-16T16:16:45Z</time>
      </trkpt>
      <trkpt lat="43.69396" lon="4.28063">
        <ele>32.07</ele>
        <time>2019-03-16T16:16:58Z</time>
      </trkpt>
      <trkpt lat="43.69382" lon="4.28048">
        <ele>33.33</ele>
        <time>2019-03-16T16:17:18Z</time>
      </trkpt>
      <trkpt lat="43.69374" lon="4.28045">
        <ele>33.62</ele>
        <time>2019-03-16T16:17:24Z</time>
      </trkpt>
      <trkpt lat="43.69372" lon="4.28043">
        <ele>33.84</ele>
        <time>2019-03-16T16:17:27Z</time>
      </trkpt>
      <trkpt lat="43.69331" lon="4.28031">
        <ele>34.47</ele>
        <time>2019-03-16T16:17:45Z</time>
      </trkpt>
      <trkpt lat="43.69326" lon="4.28031">
        <ele>34.55</ele>
        <time>2019-03-16T16:17:47Z</time>
      </trkpt>
      <trkpt lat="43.69311" lon="4.28031">
        <ele>34.94</ele>
        <time>2019-03-16T16:17:54Z</time>
      </trkpt>
      <trkpt lat="43.69304" lon="4.2803">
        <ele>35.31</ele>
        <time>2019-03-16T16:18:02Z</time>
      </trkpt>
      <trkpt lat="43.69298" lon="4.28031">
        <ele>35.44</ele>
        <time>2019-03-16T16:18:07Z</time>
      </trkpt>
      <trkpt lat="43.69294" lon="4.2803">
        <ele>36.01</ele>
        <time>2019-03-16T16:18:22Z</time>
      </trkpt>
      <trkpt lat="43.69288" lon="4.2803">
        <ele>35.91</ele>
        <time>2019-03-16T16:18:28Z</time>
      </trkpt>
      <trkpt lat="43.69278" lon="4.28027">
        <ele>35.61</ele>
        <time>2019-03-16T16:18:36Z</time>
      </trkpt>
      <trkpt lat="43.69275" lon="4.28026">
        <ele>35.55</ele>
        <time>2019-03-16T16:18:38Z</time>
      </trkpt>
      <trkpt lat="43.69259" lon="4.28025">
        <ele>35.34</ele>
        <time>2019-03-16T16:18:54Z</time>
      </trkpt>
      <trkpt lat="43.69257" lon="4.28025">
        <ele>35.3</ele>
        <time>2019-03-16T16:18:55Z</time>
      </trkpt>
      <trkpt lat="43.69253" lon="4.28022">
        <ele>34.62</ele>
        <time>2019-03-16T16:19:09Z</time>
      </trkpt>
      <trkpt lat="43.69253" lon="4.28018">
        <ele>34.62</ele>
        <time>2019-03-16T16:19:30Z</time>
      </trkpt>
      <trkpt lat="43.69247" lon="4.28016">
        <ele>34.05</ele>
        <time>2019-03-16T16:19:45Z</time>
      </trkpt>
      <trkpt lat="43.69242" lon="4.28003">
        <ele>32.96</ele>
        <time>2019-03-16T16:20:03Z</time>
      </trkpt>
      <trkpt lat="43.69238" lon="4.27999">
        <ele>32.43</ele>
        <time>2019-03-16T16:20:09Z</time>
      </trkpt>
      <trkpt lat="43.69216" lon="4.28">
        <ele>31.72</ele>
        <time>2019-03-16T16:20:18Z</time>
      </trkpt>
      <trkpt lat="43.69207" lon="4.27985">
        <ele>30.75</ele>
        <time>2019-03-16T16:20:33Z</time>
      </trkpt>
      <trkpt lat="43.69209" lon="4.27949">
        <ele>29.34</ele>
        <time>2019-03-16T16:20:53Z</time>
      </trkpt>
      <trkpt lat="43.69209" lon="4.27947">
        <ele>29.2</ele>
        <time>2019-03-16T16:20:54Z</time>
      </trkpt>
      <trkpt lat="43.69204" lon="4.27933">
        <ele>28.55</ele>
        <time>2019-03-16T16:21:00Z</time>
      </trkpt>
      <trkpt lat="43.69196" lon="4.27921">
        <ele>28.19</ele>
        <time>2019-03-16T16:21:04Z</time>
      </trkpt>
      <trkpt lat="43.69198" lon="4.27911">
        <ele>27.01</ele>
        <time>2019-03-16T16:21:21Z</time>
      </trkpt>
      <trkpt lat="43.69189" lon="4.27894">
        <ele>26.34</ele>
        <time>2019-03-16T16:21:37Z</time>
      </trkpt>
      <trkpt lat="43.69189" lon="4.27886">
        <ele>26.01</ele>
        <time>2019-03-16T16:21:44Z</time>
      </trkpt>
      <trkpt lat="43.69172" lon="4.2787">
        <ele>25.39</ele>
        <time>2019-03-16T16:21:54Z</time>
      </trkpt>
      <trkpt lat="43.69147" lon="4.27857">
        <ele>24.07</ele>
        <time>2019-03-16T16:22:12Z</time>
      </trkpt>
      <trkpt lat="43.69147" lon="4.27856">
        <ele>24.07</ele>
        <time>2019-03-16T16:22:14Z</time>
      </trkpt>
      <trkpt lat="43.69146" lon="4.27845">
        <ele>24.1</ele>
        <time>2019-03-16T16:22:23Z</time>
      </trkpt>
      <trkpt lat="43.69148" lon="4.27837">
        <ele>24.11</ele>
        <time>2019-03-16T16:22:28Z</time>
      </trkpt>
      <trkpt lat="43.69149" lon="4.2783">
        <ele>24.01</ele>
        <time>2019-03-16T16:22:32Z</time>
      </trkpt>
      <trkpt lat="43.6915" lon="4.27795">
        <ele>22.4</ele>
        <time>2019-03-16T16:22:55Z</time>
      </trkpt>
      <trkpt lat="43.69155" lon="4.27762">
        <ele>21.88</ele>
        <time>2019-03-16T16:23:15Z</time>
      </trkpt>
      <trkpt lat="43.69162" lon="4.27733">
        <ele>21</ele>
        <time>2019-03-16T16:23:32Z</time>
      </trkpt>
      <trkpt lat="43.69163" lon="4.27731">
        <ele>20.94</ele>
        <time>2019-03-16T16:23:33Z</time>
      </trkpt>
      <trkpt lat="43.69174" lon="4.27706">
        <ele>19.99</ele>
        <time>2019-03-16T16:23:49Z</time>
      </trkpt>
      <trkpt lat="43.6918" lon="4.27694">
        <ele>19.6</ele>
        <time>2019-03-16T16:23:57Z</time>
      </trkpt>
      <trkpt lat="43.69173" lon="4.27682">
        <ele>19.49</ele>
        <time>2019-03-16T16:24:13Z</time>
      </trkpt>
      <trkpt lat="43.69167" lon="4.27678">
        <ele>19.93</ele>
        <time>2019-03-16T16:24:29Z</time>
      </trkpt>
      <trkpt lat="43.69154" lon="4.27671">
        <ele>20.04</ele>
        <time>2019-03-16T16:24:38Z</time>
      </trkpt>
      <trkpt lat="43.69157" lon="4.27662">
        <ele>19.77</ele>
        <time>2019-03-16T16:24:44Z</time>
      </trkpt>
      <trkpt lat="43.69158" lon="4.27657">
        <ele>19.53</ele>
        <time>2019-03-16T16:24:47Z</time>
      </trkpt>
      <trkpt lat="43.69152" lon="4.2765">
        <ele>19.04</ele>
        <time>2019-03-16T16:24:52Z</time>
      </trkpt>
      <trkpt lat="43.69142" lon="4.27636">
        <ele>17.94</ele>
        <time>2019-03-16T16:25:05Z</time>
      </trkpt>
      <trkpt lat="43.69139" lon="4.27614">
        <ele>17.02</ele>
        <time>2019-03-16T16:25:19Z</time>
      </trkpt>
      <trkpt lat="43.69138" lon="4.2761">
        <ele>16.8</ele>
        <time>2019-03-16T16:25:22Z</time>
      </trkpt>
      <trkpt lat="43.69136" lon="4.27602">
        <ele>15.84</ele>
        <time>2019-03-16T16:25:57Z</time>
      </trkpt>
      <trkpt lat="43.69133" lon="4.27604">
        <ele>15.89</ele>
        <time>2019-03-16T16:26:59Z</time>
      </trkpt>
      <trkpt lat="43.69134" lon="4.27593">
        <ele>16.28</ele>
        <time>2019-03-16T16:27:50Z</time>
      </trkpt>
      <trkpt lat="43.69147" lon="4.27605">
        <ele>15.82</ele>
        <time>2019-03-16T16:28:26Z</time>
      </trkpt>
      <trkpt lat="43.69129" lon="4.27612">
        <ele>16.34</ele>
        <time>2019-03-16T16:30:02Z</time>
      </trkpt>
      <trkpt lat="43.69136" lon="4.27616">
        <ele>16.28</ele>
        <time>2019-03-16T16:30:28Z</time>
      </trkpt>
      <trkpt lat="43.69195" lon="4.27621">
        <ele>16.43</ele>
        <time>2019-03-16T16:30:58Z</time>
      </trkpt>
      <trkpt lat="43.69103" lon="4.27598">
        <ele>16.78</ele>
        <time>2019-03-16T16:39:58Z</time>
      </trkpt>
      <trkpt lat="43.69101" lon="4.27598">
        <ele>16.84</ele>
        <time>2019-03-16T16:40:00Z</time>
      </trkpt>
      <trkpt lat="43.69126" lon="4.27611">
        <ele>17.42</ele>
        <time>2019-03-16T16:47:13Z</time>
      </trkpt>
      <trkpt lat="43.69121" lon="4.27612">
        <ele>17.44</ele>
        <time>2019-03-16T16:47:36Z</time>
      </trkpt>
      <trkpt lat="43.69116" lon="4.27609">
        <ele>17.48</ele>
        <time>2019-03-16T16:54:59Z</time>
      </trkpt>
      <trkpt lat="43.6913" lon="4.27603">
        <ele>17.93</ele>
        <time>2019-03-16T16:56:24Z</time>
      </trkpt>
      <trkpt lat="43.69128" lon="4.27602">
        <ele>20.2</ele>
        <time>2019-03-16T16:56:34Z</time>
      </trkpt>
      <trkpt lat="43.69126" lon="4.27605">
        <ele>20.67</ele>
        <time>2019-03-16T16:57:03Z</time>
      </trkpt>
      <trkpt lat="43.69129" lon="4.27606">
        <ele>20.37</ele>
        <time>2019-03-16T16:57:37Z</time>
      </trkpt>
      <trkpt lat="43.6913" lon="4.27605">
        <ele>20.5</ele>
        <time>2019-03-16T16:58:10Z</time>
      </trkpt>
      <trkpt lat="43.69131" lon="4.27606">
        <ele>20.56</ele>
        <time>2019-03-16T16:58:42Z</time>
      </trkpt>
      <trkpt lat="43.69131" lon="4.27604">
        <ele>20.48</ele>
        <time>2019-03-16T16:59:11Z</time>
      </trkpt>
      <trkpt lat="43.69132" lon="4.27598">
        <ele>20.29</ele>
        <time>2019-03-16T17:00:40Z</time>
      </trkpt>
      <trkpt lat="43.69132" lon="4.27598">
        <ele>20.22</ele>
        <time>2019-03-16T17:00:45Z</time>
      </trkpt>
      <trkpt lat="43.69132" lon="4.27602">
        <ele>20.56</ele>
        <time>2019-03-16T17:01:05Z</time>
      </trkpt>
      <trkpt lat="43.69129" lon="4.27603">
        <ele>20.72</ele>
        <time>2019-03-16T17:01:38Z</time>
      </trkpt>
      <trkpt lat="43.6913" lon="4.27597">
        <ele>20.21</ele>
        <time>2019-03-16T17:02:15Z</time>
      </trkpt>
      <trkpt lat="43.69131" lon="4.27596">
        <ele>20.5</ele>
        <time>2019-03-16T17:02:43Z</time>
      </trkpt>
      <trkpt lat="43.69135" lon="4.27596">
        <ele>20.47</ele>
        <time>2019-03-16T17:03:10Z</time>
      </trkpt>
      <trkpt lat="43.69133" lon="4.27598">
        <ele>20.61</ele>
        <time>2019-03-16T17:03:43Z</time>
      </trkpt>
      <trkpt lat="43.69133" lon="4.276">
        <ele>20.4</ele>
        <time>2019-03-16T17:04:16Z</time>
      </trkpt>
      <trkpt lat="43.69133" lon="4.276">
        <ele>20.31</ele>
        <time>2019-03-16T17:04:46Z</time>
      </trkpt>
      <trkpt lat="43.69133" lon="4.27603">
        <ele>20.32</ele>
        <time>2019-03-16T17:05:16Z</time>
      </trkpt>
      <trkpt lat="43.69131" lon="4.27605">
        <ele>20.2</ele>
        <time>2019-03-16T17:05:54Z</time>
      </trkpt>
      <trkpt lat="43.69129" lon="4.27605">
        <ele>20.08</ele>
        <time>2019-03-16T17:06:24Z</time>
      </trkpt>
      <trkpt lat="43.69128" lon="4.27605">
        <ele>19.96</ele>
        <time>2019-03-16T17:06:57Z</time>
      </trkpt>
      <trkpt lat="43.69127" lon="4.27605">
        <ele>19.94</ele>
        <time>2019-03-16T17:07:27Z</time>
      </trkpt>
      <trkpt lat="43.69128" lon="4.27604">
        <ele>19.96</ele>
        <time>2019-03-16T17:07:57Z</time>
      </trkpt>
      <trkpt lat="43.69127" lon="4.27603">
        <ele>20.02</ele>
        <time>2019-03-16T17:08:28Z</time>
      </trkpt>
      <trkpt lat="43.69126" lon="4.27604">
        <ele>20.09</ele>
        <time>2019-03-16T17:09:06Z</time>
      </trkpt>
      <trkpt lat="43.69129" lon="4.27603">
        <ele>20.14</ele>
        <time>2019-03-16T17:09:40Z</time>
      </trkpt>
      <trkpt lat="43.69131" lon="4.27605">
        <ele>20.07</ele>
        <time>2019-03-16T17:10:14Z</time>
      </trkpt>
      <trkpt lat="43.6913" lon="4.27601">
        <ele>19.97</ele>
        <time>2019-03-16T17:10:47Z</time>
      </trkpt>
      <trkpt lat="43.6913" lon="4.27602">
        <ele>20.05</ele>
        <time>2019-03-16T17:11:18Z</time>
      </trkpt>
      <trkpt lat="43.6913" lon="4.27602">
        <ele>19.93</ele>
        <time>2019-03-16T17:11:50Z</time>
      </trkpt>
      <trkpt lat="43.69129" lon="4.27603">
        <ele>20.27</ele>
        <time>2019-03-16T17:12:24Z</time>
      </trkpt>
      <trkpt lat="43.69129" lon="4.27604">
        <ele>20.02</ele>
        <time>2019-03-16T17:12:58Z</time>
      </trkpt>
      <trkpt lat="43.69128" lon="4.27602">
        <ele>20.21</ele>
        <time>2019-03-16T17:13:31Z</time>
      </trkpt>
      <trkpt lat="43.69128" lon="4.27601">
        <ele>20.15</ele>
        <time>2019-03-16T17:14:00Z</time>
      </trkpt>
      <trkpt lat="43.69128" lon="4.27605">
        <ele>20.29</ele>
        <time>2019-03-16T17:14:32Z</time>
      </trkpt>
      <trkpt lat="43.69127" lon="4.27603">
        <ele>20.17</ele>
        <time>2019-03-16T17:15:06Z</time>
      </trkpt>
      <trkpt lat="43.69129" lon="4.27603">
        <ele>20.16</ele>
        <time>2019-03-16T17:15:38Z</time>
      </trkpt>
      <trkpt lat="43.69129" lon="4.27604">
        <ele>20.49</ele>
        <time>2019-03-16T17:16:10Z</time>
      </trkpt>
      <trkpt lat="43.69131" lon="4.27605">
        <ele>20.28</ele>
        <time>2019-03-16T17:16:44Z</time>
      </trkpt>
      <trkpt lat="43.6913" lon="4.27603">
        <ele>20.26</ele>
        <time>2019-03-16T17:17:18Z</time>
      </trkpt>
      <trkpt lat="43.69131" lon="4.27602">
        <ele>20.43</ele>
        <time>2019-03-16T17:17:52Z</time>
      </trkpt>
      <trkpt lat="43.6913" lon="4.27601">
        <ele>20.6</ele>
        <time>2019-03-16T17:18:29Z</time>
      </trkpt>
      <trkpt lat="43.69129" lon="4.27602">
        <ele>20.82</ele>
        <time>2019-03-16T17:20:30Z</time>
      </trkpt>
      <trkpt lat="43.69131" lon="4.27603">
        <ele>21.08</ele>
        <time>2019-03-16T17:21:33Z</time>
      </trkpt>
      <trkpt lat="43.69131" lon="4.27604">
        <ele>21.01</ele>
        <time>2019-03-16T17:22:05Z</time>
      </trkpt>
      <trkpt lat="43.69131" lon="4.27605">
        <ele>20.91</ele>
        <time>2019-03-16T17:22:47Z</time>
      </trkpt>
      <trkpt lat="43.69142" lon="4.27599">
        <ele>21.59</ele>
        <time>2019-03-16T17:31:34Z</time>
      </trkpt>
      <trkpt lat="43.69135" lon="4.27603">
        <ele>21.13</ele>
        <time>2019-03-16T17:33:27Z</time>
      </trkpt>
      <trkpt lat="43.69134" lon="4.27604">
        <ele>21.39</ele>
        <time>2019-03-16T17:33:59Z</time>
      </trkpt>
      <trkpt lat="43.69133" lon="4.27603">
        <ele>21.56</ele>
        <time>2019-03-16T17:34:31Z</time>
      </trkpt>
      <trkpt lat="43.69132" lon="4.276">
        <ele>21.67</ele>
        <time>2019-03-16T17:35:04Z</time>
      </trkpt>
      <trkpt lat="43.69135" lon="4.27596">
        <ele>21.81</ele>
        <time>2019-03-16T17:35:40Z</time>
      </trkpt>
      <trkpt lat="43.69136" lon="4.27597">
        <ele>21.75</ele>
        <time>2019-03-16T17:36:14Z</time>
      </trkpt>
      <trkpt lat="43.69133" lon="4.27598">
        <ele>21.71</ele>
        <time>2019-03-16T17:36:46Z</time>
      </trkpt>
      <trkpt lat="43.6913" lon="4.276">
        <ele>21.99</ele>
        <time>2019-03-16T17:37:19Z</time>
      </trkpt>
      <trkpt lat="43.69129" lon="4.27599">
        <ele>21.74</ele>
        <time>2019-03-16T17:37:51Z</time>
      </trkpt>
      <trkpt lat="43.69127" lon="4.27602">
        <ele>21.71</ele>
        <time>2019-03-16T17:38:27Z</time>
      </trkpt>
      <trkpt lat="43.69129" lon="4.27605">
        <ele>21.73</ele>
        <time>2019-03-16T17:39:12Z</time>
      </trkpt>
      <trkpt lat="43.69128" lon="4.27606">
        <ele>21.63</ele>
        <time>2019-03-16T17:42:45Z</time>
      </trkpt>
      <trkpt lat="43.69127" lon="4.27611">
        <ele>21.59</ele>
        <time>2019-03-16T17:43:14Z</time>
      </trkpt>
      <trkpt lat="43.69129" lon="4.2761">
        <ele>21.36</ele>
        <time>2019-03-16T17:43:47Z</time>
      </trkpt>
      <trkpt lat="43.69127" lon="4.27609">
        <ele>21.66</ele>
        <time>2019-03-16T17:44:18Z</time>
      </trkpt>
      <trkpt lat="43.69127" lon="4.27609">
        <ele>21.52</ele>
        <time>2019-03-16T17:44:54Z</time>
      </trkpt>
      <trkpt lat="43.69127" lon="4.27609">
        <ele>21.64</ele>
        <time>2019-03-16T17:45:26Z</time>
      </trkpt>
      <trkpt lat="43.69129" lon="4.27608">
        <ele>21.55</ele>
        <time>2019-03-16T17:46:00Z</time>
      </trkpt>
      <trkpt lat="43.69129" lon="4.27607">
        <ele>21.5</ele>
        <time>2019-03-16T17:46:31Z</time>
      </trkpt>
      <trkpt lat="43.6913" lon="4.27606">
        <ele>21.5</ele>
        <time>2019-03-16T17:47:04Z</time>
      </trkpt>
      <trkpt lat="43.69132" lon="4.27607">
        <ele>21.46</ele>
        <time>2019-03-16T17:47:36Z</time>
      </trkpt>
      <trkpt lat="43.69132" lon="4.27606">
        <ele>21.55</ele>
        <time>2019-03-16T17:48:10Z</time>
      </trkpt>
      <trkpt lat="43.6913" lon="4.27608">
        <ele>21.39</ele>
        <time>2019-03-16T17:48:45Z</time>
      </trkpt>
      <trkpt lat="43.6913" lon="4.27603">
        <ele>21.71</ele>
        <time>2019-03-16T17:49:42Z</time>
      </trkpt>
      <trkpt lat="43.6913" lon="4.27604">
        <ele>21.46</ele>
        <time>2019-03-16T17:50:17Z</time>
      </trkpt>
      <trkpt lat="43.6913" lon="4.27602">
        <ele>21.56</ele>
        <time>2019-03-16T17:50:51Z</time>
      </trkpt>
      <trkpt lat="43.69127" lon="4.27601">
        <ele>21.69</ele>
        <time>2019-03-16T17:51:55Z</time>
      </trkpt>
      <trkpt lat="43.69132" lon="4.27603">
        <ele>21.46</ele>
        <time>2019-03-16T17:54:09Z</time>
      </trkpt>
      <trkpt lat="43.69132" lon="4.27604">
        <ele>21.76</ele>
        <time>2019-03-16T17:54:43Z</time>
      </trkpt>
      <trkpt lat="43.69132" lon="4.27603">
        <ele>21.58</ele>
        <time>2019-03-16T17:55:18Z</time>
      </trkpt>
      <trkpt lat="43.69131" lon="4.27604">
        <ele>21.37</ele>
        <time>2019-03-16T17:55:53Z</time>
      </trkpt>
      <trkpt lat="43.69133" lon="4.27608">
        <ele>21.59</ele>
        <time>2019-03-16T17:56:58Z</time>
      </trkpt>
      <trkpt lat="43.69129" lon="4.27604">
        <ele>21.55</ele>
        <time>2019-03-16T17:58:08Z</time>
      </trkpt>
      <trkpt lat="43.6913" lon="4.27605">
        <ele>21.18</ele>
        <time>2019-03-16T17:58:38Z</time>
      </trkpt>
      <trkpt lat="43.69129" lon="4.27607">
        <ele>21.11</ele>
        <time>2019-03-16T17:59:08Z</time>
      </trkpt>
      <trkpt lat="43.69126" lon="4.27607">
        <ele>21.05</ele>
        <time>2019-03-16T17:59:44Z</time>
      </trkpt>
      <trkpt lat="43.69127" lon="4.27608">
        <ele>21.15</ele>
        <time>2019-03-16T18:01:15Z</time>
      </trkpt>
      <trkpt lat="43.69126" lon="4.27606">
        <ele>21.12</ele>
        <time>2019-03-16T18:01:45Z</time>
      </trkpt>
      <trkpt lat="43.69128" lon="4.27605">
        <ele>21.3</ele>
        <time>2019-03-16T18:02:19Z</time>
      </trkpt>
      <trkpt lat="43.6913" lon="4.27606">
        <ele>21.12</ele>
        <time>2019-03-16T18:02:56Z</time>
      </trkpt>
      <trkpt lat="43.69131" lon="4.27604">
        <ele>21.05</ele>
        <time>2019-03-16T18:03:29Z</time>
      </trkpt>
      <trkpt lat="43.69131" lon="4.27606">
        <ele>21.28</ele>
        <time>2019-03-16T18:04:18Z</time>
      </trkpt>
      <trkpt lat="43.69128" lon="4.27606">
        <ele>21.03</ele>
        <time>2019-03-16T18:04:53Z</time>
      </trkpt>
      <trkpt lat="43.69128" lon="4.27603">
        <ele>21.13</ele>
        <time>2019-03-16T18:05:27Z</time>
      </trkpt>
      <trkpt lat="43.69127" lon="4.27604">
        <ele>21.33</ele>
        <time>2019-03-16T18:05:59Z</time>
      </trkpt>
      <trkpt lat="43.69127" lon="4.27605">
        <ele>21.39</ele>
        <time>2019-03-16T18:06:27Z</time>
      </trkpt>
      <trkpt lat="43.69127" lon="4.27603">
        <ele>21.29</ele>
        <time>2019-03-16T18:07:00Z</time>
      </trkpt>
      <trkpt lat="43.69128" lon="4.27605">
        <ele>21.38</ele>
        <time>2019-03-16T18:07:35Z</time>
      </trkpt>
      <trkpt lat="43.69127" lon="4.27607">
        <ele>21.29</ele>
        <time>2019-03-16T18:08:08Z</time>
      </trkpt>
      <trkpt lat="43.69128" lon="4.27608">
        <ele>21.16</ele>
        <time>2019-03-16T18:08:41Z</time>
      </trkpt>
      <trkpt lat="43.69126" lon="4.27608">
        <ele>20.74</ele>
        <time>2019-03-16T18:09:11Z</time>
      </trkpt>
      <trkpt lat="43.69126" lon="4.27604">
        <ele>20.74</ele>
        <time>2019-03-16T18:09:57Z</time>
      </trkpt>
      <trkpt lat="43.69125" lon="4.27604">
        <ele>20.7</ele>
        <time>2019-03-16T18:11:54Z</time>
      </trkpt>
      <trkpt lat="43.69124" lon="4.2761">
        <ele>20.63</ele>
        <time>2019-03-16T18:12:27Z</time>
      </trkpt>
      <trkpt lat="43.69124" lon="4.27612">
        <ele>20.47</ele>
        <time>2019-03-16T18:13:02Z</time>
      </trkpt>
      <trkpt lat="43.69127" lon="4.2761">
        <ele>20.54</ele>
        <time>2019-03-16T18:13:38Z</time>
      </trkpt>
      <trkpt lat="43.69127" lon="4.27608">
        <ele>20.44</ele>
        <time>2019-03-16T18:14:11Z</time>
      </trkpt>
      <trkpt lat="43.69127" lon="4.27607">
        <ele>20.5</ele>
        <time>2019-03-16T18:14:44Z</time>
      </trkpt>
      <trkpt lat="43.69127" lon="4.27606">
        <ele>20.42</ele>
        <time>2019-03-16T18:15:17Z</time>
      </trkpt>
      <trkpt lat="43.69129" lon="4.27605">
        <ele>20.62</ele>
        <time>2019-03-16T18:18:47Z</time>
      </trkpt>
      <trkpt lat="43.69132" lon="4.27606">
        <ele>20.66</ele>
        <time>2019-03-16T18:19:18Z</time>
      </trkpt>
      <trkpt lat="43.69134" lon="4.27604">
        <ele>20.72</ele>
        <time>2019-03-16T18:19:49Z</time>
      </trkpt>
      <trkpt lat="43.69136" lon="4.27602">
        <ele>20.83</ele>
        <time>2019-03-16T18:20:19Z</time>
      </trkpt>
      <trkpt lat="43.69136" lon="4.27601">
        <ele>20.93</ele>
        <time>2019-03-16T18:20:49Z</time>
      </trkpt>
      <trkpt lat="43.69135" lon="4.27601">
        <ele>21.05</ele>
        <time>2019-03-16T18:21:43Z</time>
      </trkpt>
      <trkpt lat="43.6913" lon="4.27604">
        <ele>20.94</ele>
        <time>2019-03-16T18:22:14Z</time>
      </trkpt>
      <trkpt lat="43.69132" lon="4.27605">
        <ele>21.27</ele>
        <time>2019-03-16T18:22:46Z</time>
      </trkpt>
      <trkpt lat="43.69134" lon="4.27603">
        <ele>21.17</ele>
        <time>2019-03-16T18:23:17Z</time>
      </trkpt>
      <trkpt lat="43.69131" lon="4.27604">
        <ele>21.05</ele>
        <time>2019-03-16T18:23:45Z</time>
      </trkpt>
      <trkpt lat="43.6913" lon="4.27605">
        <ele>21.48</ele>
        <time>2019-03-16T18:25:13Z</time>
      </trkpt>
      <trkpt lat="43.69129" lon="4.27604">
        <ele>21.28</ele>
        <time>2019-03-16T18:25:44Z</time>
      </trkpt>
      <trkpt lat="43.69126" lon="4.27605">
        <ele>21.43</ele>
        <time>2019-03-16T18:26:13Z</time>
      </trkpt>
      <trkpt lat="43.69126" lon="4.27605">
        <ele>21.53</ele>
        <time>2019-03-16T18:26:54Z</time>
      </trkpt>
      <trkpt lat="43.69129" lon="4.27605">
        <ele>21.59</ele>
        <time>2019-03-16T18:27:26Z</time>
      </trkpt>
      <trkpt lat="43.69132" lon="4.27606">
        <ele>21.53</ele>
        <time>2019-03-16T18:27:59Z</time>
      </trkpt>
      <trkpt lat="43.69131" lon="4.27605">
        <ele>21.66</ele>
        <time>2019-03-16T18:28:31Z</time>
      </trkpt>
      <trkpt lat="43.69129" lon="4.27607">
        <ele>21.65</ele>
        <time>2019-03-16T18:29:03Z</time>
      </trkpt>
      <trkpt lat="43.6913" lon="4.27606">
        <ele>21.61</ele>
        <time>2019-03-16T18:29:35Z</time>
      </trkpt>
      <trkpt lat="43.69132" lon="4.27607">
        <ele>21.82</ele>
        <time>2019-03-16T18:30:08Z</time>
      </trkpt>
      <trkpt lat="43.69129" lon="4.27608">
        <ele>21.99</ele>
        <time>2019-03-16T18:30:42Z</time>
      </trkpt>
      <trkpt lat="43.69131" lon="4.27604">
        <ele>22.01</ele>
        <time>2019-03-16T18:31:14Z</time>
      </trkpt>
      <trkpt lat="43.69129" lon="4.27606">
        <ele>21.92</ele>
        <time>2019-03-16T18:31:38Z</time>
      </trkpt>
      <trkpt lat="43.69123" lon="4.27606">
        <ele>22.02</ele>
        <time>2019-03-16T18:32:13Z</time>
      </trkpt>
      <trkpt lat="43.69123" lon="4.27602">
        <ele>22.04</ele>
        <time>2019-03-16T18:32:44Z</time>
      </trkpt>
    </trkseg>
  </trk>
</gpx>